<?xml version="1.0" encoding="ISO-8859-1" standalone="yes"?>
<gpx
 version="1.0"
 creator="OziExplorer Version 3954q - http://www.oziexplorer.com"
 xmlns:xsi="http://www.w3.org/2001/XMLSchema-instance"
 xmlns="http://www.topografix.com/GPX/1/0"
 xsi:schemaLocation="http://www.topografix.com/GPX/1/0 http://www.topografix.com/GPX/1/0/gpx.xsd">
<time>2017-07-18T15:58:15Z</time>
<bounds minlat="39.185820" minlon="-6.159596" maxlat="39.195559" maxlon="-6.126441"/>
<wpt lat="39.1884946" lon="-6.1608316">
 <ele>0.000000</ele>
 <time>2017-07-14T18:39:29.005Z</time>
 <name>FUENTE</name>
 <cmt>Fuente de Dos Caños</cmt>
 <desc>Fuente de Dos Caños</desc>
</wpt>
<wpt lat="39.1942052" lon="-6.1311915">
 <ele>0.000000</ele>
 <time>2017-07-14T19:06:29.048Z</time>
 <name>VISTA PANORAMI</name>
 <cmt>Vsta Panorámica a la Sierra del Saltillo</cmt>
 <desc>Vsta Panorámica a la Sierra del Saltillo</desc>
</wpt>
<trk>
 <name>SL-CC  7</name>
 <desc>SL-CC 7</desc>
<trkseg>
<trkpt lat="39.1888280" lon="-6.1606760">
<ele>368.320313</ele>
<time>2017-07-08T08:35:05.004Z</time>
</trkpt>
<trkpt lat="39.1888340" lon="-6.1605340">
<ele>368.808014</ele>
<time>2017-07-08T08:35:17.008Z</time>
</trkpt>
<trkpt lat="39.1888430" lon="-6.1603770">
<ele>369.752869</ele>
<time>2017-07-08T08:35:29.009Z</time>
</trkpt>
<trkpt lat="39.1888500" lon="-6.1603250">
<ele>370.240540</ele>
<time>2017-07-08T08:35:35.002Z</time>
</trkpt>
<trkpt lat="39.1888470" lon="-6.1602980">
<ele>370.240540</ele>
<time>2017-07-08T08:35:36.007Z</time>
</trkpt>
<trkpt lat="39.1888430" lon="-6.1601220">
<ele>371.703613</ele>
<time>2017-07-08T08:35:51.003Z</time>
</trkpt>
<trkpt lat="39.1888430" lon="-6.1600590">
<ele>372.648468</ele>
<time>2017-07-08T08:36:03.007Z</time>
</trkpt>
<trkpt lat="39.1888410" lon="-6.1600630">
<ele>373.623840</ele>
<time>2017-07-08T08:36:23.009Z</time>
</trkpt>
<trkpt lat="39.1888400" lon="-6.1600730">
<ele>373.623840</ele>
<time>2017-07-08T08:36:34.004Z</time>
</trkpt>
<trkpt lat="39.1888160" lon="-6.1600500">
<ele>374.568726</ele>
<time>2017-07-08T08:36:49.003Z</time>
</trkpt>
<trkpt lat="39.1888050" lon="-6.1599720">
<ele>374.568726</ele>
<time>2017-07-08T08:36:54.009Z</time>
</trkpt>
<trkpt lat="39.1888100" lon="-6.1599210">
<ele>375.544067</ele>
<time>2017-07-08T08:37:05.008Z</time>
</trkpt>
<trkpt lat="39.1888030" lon="-6.1599200">
<ele>376.001282</ele>
<time>2017-07-08T08:37:20.004Z</time>
</trkpt>
<trkpt lat="39.1888060" lon="-6.1598920">
<ele>376.001282</ele>
<time>2017-07-08T08:37:23.002Z</time>
</trkpt>
<trkpt lat="39.1887810" lon="-6.1598030">
<ele>377.464325</ele>
<time>2017-07-08T08:37:31.002Z</time>
</trkpt>
<trkpt lat="39.1887720" lon="-6.1597100">
<ele>378.896881</ele>
<time>2017-07-08T08:37:43.007Z</time>
</trkpt>
<trkpt lat="39.1888130" lon="-6.1597500">
<ele>378.409210</ele>
<time>2017-07-08T08:37:55.008Z</time>
</trkpt>
<trkpt lat="39.1888240" lon="-6.1597230">
<ele>380.817139</ele>
<time>2017-07-08T08:39:23.006Z</time>
</trkpt>
<trkpt lat="39.1888160" lon="-6.1597230">
<ele>381.304810</ele>
<time>2017-07-08T08:39:46.006Z</time>
</trkpt>
<trkpt lat="39.1888910" lon="-6.1596990">
<ele>382.249664</ele>
<time>2017-07-08T08:40:25.007Z</time>
</trkpt>
<trkpt lat="39.1889220" lon="-6.1596770">
<ele>382.737335</ele>
<time>2017-07-08T08:40:33.004Z</time>
</trkpt>
<trkpt lat="39.1889580" lon="-6.1596530">
<ele>382.737335</ele>
<time>2017-07-08T08:40:37.004Z</time>
</trkpt>
<trkpt lat="39.1890100" lon="-6.1595820">
<ele>382.737335</ele>
<time>2017-07-08T08:40:51.001Z</time>
</trkpt>
<trkpt lat="39.1891020" lon="-6.1594350">
<ele>383.225067</ele>
<time>2017-07-08T08:41:04.004Z</time>
</trkpt>
<trkpt lat="39.1891730" lon="-6.1593100">
<ele>384.169922</ele>
<time>2017-07-08T08:41:15.006Z</time>
</trkpt>
<trkpt lat="39.1892700" lon="-6.1591400">
<ele>384.657593</ele>
<time>2017-07-08T08:41:31.004Z</time>
</trkpt>
<trkpt lat="39.1893400" lon="-6.1589990">
<ele>385.632935</ele>
<time>2017-07-08T08:41:43.009Z</time>
</trkpt>
<trkpt lat="39.1894410" lon="-6.1588500">
<ele>386.577850</ele>
<time>2017-07-08T08:41:58.008Z</time>
</trkpt>
<trkpt lat="39.1894340" lon="-6.1588770">
<ele>387.065521</ele>
<time>2017-07-08T08:42:09.006Z</time>
</trkpt>
<trkpt lat="39.1894320" lon="-6.1588750">
<ele>387.065521</ele>
<time>2017-07-08T08:42:28.002Z</time>
</trkpt>
<trkpt lat="39.1894570" lon="-6.1588470">
<ele>387.553192</ele>
<time>2017-07-08T08:42:41.009Z</time>
</trkpt>
<trkpt lat="39.1894650" lon="-6.1587660">
<ele>388.040863</ele>
<time>2017-07-08T08:42:55.006Z</time>
</trkpt>
<trkpt lat="39.1894920" lon="-6.1586910">
<ele>388.985748</ele>
<time>2017-07-08T08:43:08.009Z</time>
</trkpt>
<trkpt lat="39.1895020" lon="-6.1586900">
<ele>389.473450</ele>
<time>2017-07-08T08:43:26.003Z</time>
</trkpt>
<trkpt lat="39.1895050" lon="-6.1586860">
<ele>389.473450</ele>
<time>2017-07-08T08:43:39.009Z</time>
</trkpt>
<trkpt lat="39.1894160" lon="-6.1586720">
<ele>389.961121</ele>
<time>2017-07-08T08:43:53.003Z</time>
</trkpt>
<trkpt lat="39.1893680" lon="-6.1585900">
<ele>390.906006</ele>
<time>2017-07-08T08:44:05.007Z</time>
</trkpt>
<trkpt lat="39.1893150" lon="-6.1584590">
<ele>390.906006</ele>
<time>2017-07-08T08:44:23.001Z</time>
</trkpt>
<trkpt lat="39.1891920" lon="-6.1583040">
<ele>389.961121</ele>
<time>2017-07-08T08:44:40.004Z</time>
</trkpt>
<trkpt lat="39.1891340" lon="-6.1582460">
<ele>389.473450</ele>
<time>2017-07-08T08:44:47.003Z</time>
</trkpt>
<trkpt lat="39.1890620" lon="-6.1581710">
<ele>389.473450</ele>
<time>2017-07-08T08:44:56.009Z</time>
</trkpt>
<trkpt lat="39.1889980" lon="-6.1581070">
<ele>389.473450</ele>
<time>2017-07-08T08:45:03.007Z</time>
</trkpt>
<trkpt lat="39.1889680" lon="-6.1580740">
<ele>389.473450</ele>
<time>2017-07-08T08:45:07.008Z</time>
</trkpt>
<trkpt lat="39.1888890" lon="-6.1579830">
<ele>389.961121</ele>
<time>2017-07-08T08:45:22.007Z</time>
</trkpt>
<trkpt lat="39.1888550" lon="-6.1579680">
<ele>389.473450</ele>
<time>2017-07-08T08:45:34.008Z</time>
</trkpt>
<trkpt lat="39.1887250" lon="-6.1578560">
<ele>388.040863</ele>
<time>2017-07-08T08:45:49.007Z</time>
</trkpt>
<trkpt lat="39.1886080" lon="-6.1577540">
<ele>388.498077</ele>
<time>2017-07-08T08:46:03.000Z</time>
</trkpt>
<trkpt lat="39.1885330" lon="-6.1576400">
<ele>389.473450</ele>
<time>2017-07-08T08:46:13.009Z</time>
</trkpt>
<trkpt lat="39.1885030" lon="-6.1575750">
<ele>389.473450</ele>
<time>2017-07-08T08:46:19.001Z</time>
</trkpt>
<trkpt lat="39.1884920" lon="-6.1575350">
<ele>389.961121</ele>
<time>2017-07-08T08:46:26.000Z</time>
</trkpt>
<trkpt lat="39.1883920" lon="-6.1574520">
<ele>390.906006</ele>
<time>2017-07-08T08:46:38.001Z</time>
</trkpt>
<trkpt lat="39.1883930" lon="-6.1574520">
<ele>390.906006</ele>
<time>2017-07-08T08:46:39.006Z</time>
</trkpt>
<trkpt lat="39.1884190" lon="-6.1574250">
<ele>390.906006</ele>
<time>2017-07-08T08:46:43.003Z</time>
</trkpt>
<trkpt lat="39.1884210" lon="-6.1574070">
<ele>391.881348</ele>
<time>2017-07-08T08:46:50.002Z</time>
</trkpt>
<trkpt lat="39.1884090" lon="-6.1573720">
<ele>392.369049</ele>
<time>2017-07-08T08:47:03.008Z</time>
</trkpt>
<trkpt lat="39.1883910" lon="-6.1573350">
<ele>392.369049</ele>
<time>2017-07-08T08:47:14.007Z</time>
</trkpt>
<trkpt lat="39.1883830" lon="-6.1573350">
<ele>392.369049</ele>
<time>2017-07-08T08:47:15.009Z</time>
</trkpt>
<trkpt lat="39.1883430" lon="-6.1573310">
<ele>390.906006</ele>
<time>2017-07-08T08:47:18.007Z</time>
</trkpt>
<trkpt lat="39.1882020" lon="-6.1572300">
<ele>389.961121</ele>
<time>2017-07-08T08:47:32.001Z</time>
</trkpt>
<trkpt lat="39.1881460" lon="-6.1572470">
<ele>388.985748</ele>
<time>2017-07-08T08:47:40.001Z</time>
</trkpt>
<trkpt lat="39.1881190" lon="-6.1572580">
<ele>388.985748</ele>
<time>2017-07-08T08:47:41.007Z</time>
</trkpt>
<trkpt lat="39.1880840" lon="-6.1572580">
<ele>388.498077</ele>
<time>2017-07-08T08:47:45.004Z</time>
</trkpt>
<trkpt lat="39.1880280" lon="-6.1572440">
<ele>388.040863</ele>
<time>2017-07-08T08:47:57.008Z</time>
</trkpt>
<trkpt lat="39.1879300" lon="-6.1572390">
<ele>388.040863</ele>
<time>2017-07-08T08:48:11.002Z</time>
</trkpt>
<trkpt lat="39.1879110" lon="-6.1572690">
<ele>388.040863</ele>
<time>2017-07-08T08:48:35.004Z</time>
</trkpt>
<trkpt lat="39.1878690" lon="-6.1572600">
<ele>387.553192</ele>
<time>2017-07-08T08:48:39.007Z</time>
</trkpt>
<trkpt lat="39.1877680" lon="-6.1572330">
<ele>387.065521</ele>
<time>2017-07-08T08:48:49.000Z</time>
</trkpt>
<trkpt lat="39.1877430" lon="-6.1571800">
<ele>387.065521</ele>
<time>2017-07-08T08:48:53.001Z</time>
</trkpt>
<trkpt lat="39.1877260" lon="-6.1571150">
<ele>387.065521</ele>
<time>2017-07-08T08:48:58.003Z</time>
</trkpt>
<trkpt lat="39.1876130" lon="-6.1569860">
<ele>387.553192</ele>
<time>2017-07-08T08:49:12.000Z</time>
</trkpt>
<trkpt lat="39.1876030" lon="-6.1569800">
<ele>388.040863</ele>
<time>2017-07-08T08:49:13.002Z</time>
</trkpt>
<trkpt lat="39.1874610" lon="-6.1569680">
<ele>388.498077</ele>
<time>2017-07-08T08:49:28.001Z</time>
</trkpt>
<trkpt lat="39.1874210" lon="-6.1569820">
<ele>388.985748</ele>
<time>2017-07-08T08:49:41.008Z</time>
</trkpt>
<trkpt lat="39.1873250" lon="-6.1569850">
<ele>389.961121</ele>
<time>2017-07-08T08:49:53.009Z</time>
</trkpt>
<trkpt lat="39.1873080" lon="-6.1569840">
<ele>390.418335</ele>
<time>2017-07-08T08:50:04.008Z</time>
</trkpt>
<trkpt lat="39.1872920" lon="-6.1569860">
<ele>391.393677</ele>
<time>2017-07-08T08:50:20.009Z</time>
</trkpt>
<trkpt lat="39.1872870" lon="-6.1569870">
<ele>390.906006</ele>
<time>2017-07-08T08:50:47.009Z</time>
</trkpt>
<trkpt lat="39.1872770" lon="-6.1569820">
<ele>391.881348</ele>
<time>2017-07-08T08:51:32.003Z</time>
</trkpt>
<trkpt lat="39.1872330" lon="-6.1569950">
<ele>392.369049</ele>
<time>2017-07-08T08:51:55.006Z</time>
</trkpt>
<trkpt lat="39.1871280" lon="-6.1570690">
<ele>392.826263</ele>
<time>2017-07-08T08:52:08.009Z</time>
</trkpt>
<trkpt lat="39.1870390" lon="-6.1571430">
<ele>392.369049</ele>
<time>2017-07-08T08:52:23.008Z</time>
</trkpt>
<trkpt lat="39.1869430" lon="-6.1572360">
<ele>391.393677</ele>
<time>2017-07-08T08:52:34.007Z</time>
</trkpt>
<trkpt lat="39.1868700" lon="-6.1573690">
<ele>389.961121</ele>
<time>2017-07-08T08:52:49.002Z</time>
</trkpt>
<trkpt lat="39.1868420" lon="-6.1574470">
<ele>388.985748</ele>
<time>2017-07-08T08:52:56.001Z</time>
</trkpt>
<trkpt lat="39.1867460" lon="-6.1576460">
<ele>387.553192</ele>
<time>2017-07-08T08:53:12.002Z</time>
</trkpt>
<trkpt lat="39.1866240" lon="-6.1577940">
<ele>385.632935</ele>
<time>2017-07-08T08:53:27.001Z</time>
</trkpt>
<trkpt lat="39.1865540" lon="-6.1578610">
<ele>384.657593</ele>
<time>2017-07-08T08:53:40.004Z</time>
</trkpt>
<trkpt lat="39.1864880" lon="-6.1579520">
<ele>384.169922</ele>
<time>2017-07-08T08:53:47.006Z</time>
</trkpt>
<trkpt lat="39.1863940" lon="-6.1580950">
<ele>382.737335</ele>
<time>2017-07-08T08:54:03.004Z</time>
</trkpt>
<trkpt lat="39.1863960" lon="-6.1580850">
<ele>383.225067</ele>
<time>2017-07-08T08:54:23.009Z</time>
</trkpt>
<trkpt lat="39.1863580" lon="-6.1580900">
<ele>382.737335</ele>
<time>2017-07-08T08:54:45.003Z</time>
</trkpt>
<trkpt lat="39.1861890" lon="-6.1579710">
<ele>381.792480</ele>
<time>2017-07-08T08:55:01.004Z</time>
</trkpt>
<trkpt lat="39.1860530" lon="-6.1578760">
<ele>381.304810</ele>
<time>2017-07-08T08:55:13.009Z</time>
</trkpt>
<trkpt lat="39.1859340" lon="-6.1578040">
<ele>381.304810</ele>
<time>2017-07-08T08:55:28.004Z</time>
</trkpt>
<trkpt lat="39.1859270" lon="-6.1578050">
<ele>380.817139</ele>
<time>2017-07-08T08:55:53.000Z</time>
</trkpt>
<trkpt lat="39.1859200" lon="-6.1578120">
<ele>381.792480</ele>
<time>2017-07-08T08:56:07.009Z</time>
</trkpt>
<trkpt lat="39.1859200" lon="-6.1578140">
<ele>382.249664</ele>
<time>2017-07-08T08:56:33.006Z</time>
</trkpt>
<trkpt lat="39.1858920" lon="-6.1577810">
<ele>382.249664</ele>
<time>2017-07-08T08:56:53.008Z</time>
</trkpt>
<trkpt lat="39.1858550" lon="-6.1577450">
<ele>382.249664</ele>
<time>2017-07-08T08:57:05.009Z</time>
</trkpt>
<trkpt lat="39.1858180" lon="-6.1576510">
<ele>382.737335</ele>
<time>2017-07-08T08:57:16.008Z</time>
</trkpt>
<trkpt lat="39.1857950" lon="-6.1575980">
<ele>383.712738</ele>
<time>2017-07-08T08:58:30.009Z</time>
</trkpt>
<trkpt lat="39.1857910" lon="-6.1574640">
<ele>384.169922</ele>
<time>2017-07-08T08:58:39.000Z</time>
</trkpt>
<trkpt lat="39.1857970" lon="-6.1574140">
<ele>384.169922</ele>
<time>2017-07-08T08:58:41.008Z</time>
</trkpt>
<trkpt lat="39.1857840" lon="-6.1573550">
<ele>384.169922</ele>
<time>2017-07-08T08:58:45.008Z</time>
</trkpt>
<trkpt lat="39.1857230" lon="-6.1570970">
<ele>384.657593</ele>
<time>2017-07-08T08:59:02.000Z</time>
</trkpt>
<trkpt lat="39.1857160" lon="-6.1570670">
<ele>384.657593</ele>
<time>2017-07-08T08:59:04.004Z</time>
</trkpt>
<trkpt lat="39.1856450" lon="-6.1568490">
<ele>385.145264</ele>
<time>2017-07-08T08:59:19.007Z</time>
</trkpt>
<trkpt lat="39.1856090" lon="-6.1567540">
<ele>385.145264</ele>
<time>2017-07-08T08:59:27.007Z</time>
</trkpt>
<trkpt lat="39.1855780" lon="-6.1566230">
<ele>385.632935</ele>
<time>2017-07-08T08:59:37.000Z</time>
</trkpt>
<trkpt lat="39.1855460" lon="-6.1565170">
<ele>385.632935</ele>
<time>2017-07-08T08:59:45.001Z</time>
</trkpt>
<trkpt lat="39.1854950" lon="-6.1563040">
<ele>385.632935</ele>
<time>2017-07-08T09:00:00.000Z</time>
</trkpt>
<trkpt lat="39.1854680" lon="-6.1562250">
<ele>385.632935</ele>
<time>2017-07-08T09:00:13.007Z</time>
</trkpt>
<trkpt lat="39.1853620" lon="-6.1560460">
<ele>384.657593</ele>
<time>2017-07-08T09:00:28.006Z</time>
</trkpt>
<trkpt lat="39.1852500" lon="-6.1558660">
<ele>385.145264</ele>
<time>2017-07-08T09:00:43.001Z</time>
</trkpt>
<trkpt lat="39.1851270" lon="-6.1557130">
<ele>385.145264</ele>
<time>2017-07-08T09:00:56.008Z</time>
</trkpt>
<trkpt lat="39.1851000" lon="-6.1556570">
<ele>385.145264</ele>
<time>2017-07-08T09:01:00.008Z</time>
</trkpt>
<trkpt lat="39.1849880" lon="-6.1554930">
<ele>385.632935</ele>
<time>2017-07-08T09:01:15.007Z</time>
</trkpt>
<trkpt lat="39.1848800" lon="-6.1553870">
<ele>385.145264</ele>
<time>2017-07-08T09:01:27.008Z</time>
</trkpt>
<trkpt lat="39.1848470" lon="-6.1553470">
<ele>384.657593</ele>
<time>2017-07-08T09:01:31.009Z</time>
</trkpt>
<trkpt lat="39.1847530" lon="-6.1552420">
<ele>383.712738</ele>
<time>2017-07-08T09:01:42.004Z</time>
</trkpt>
<trkpt lat="39.1847010" lon="-6.1551750">
<ele>383.712738</ele>
<time>2017-07-08T09:01:57.006Z</time>
</trkpt>
<trkpt lat="39.1846210" lon="-6.1551120">
<ele>383.225067</ele>
<time>2017-07-08T09:02:13.004Z</time>
</trkpt>
<trkpt lat="39.1846070" lon="-6.1550360">
<ele>383.712738</ele>
<time>2017-07-08T09:02:28.007Z</time>
</trkpt>
<trkpt lat="39.1846050" lon="-6.1550090">
<ele>383.712738</ele>
<time>2017-07-08T09:02:36.004Z</time>
</trkpt>
<trkpt lat="39.1846070" lon="-6.1549870">
<ele>384.169922</ele>
<time>2017-07-08T09:02:38.000Z</time>
</trkpt>
<trkpt lat="39.1846360" lon="-6.1548730">
<ele>385.145264</ele>
<time>2017-07-08T09:02:51.006Z</time>
</trkpt>
<trkpt lat="39.1846360" lon="-6.1548530">
<ele>385.145264</ele>
<time>2017-07-08T09:02:59.007Z</time>
</trkpt>
<trkpt lat="39.1846530" lon="-6.1547900">
<ele>385.145264</ele>
<time>2017-07-08T09:03:03.007Z</time>
</trkpt>
<trkpt lat="39.1846970" lon="-6.1546490">
<ele>385.145264</ele>
<time>2017-07-08T09:03:13.000Z</time>
</trkpt>
<trkpt lat="39.1847940" lon="-6.1544180">
<ele>385.145264</ele>
<time>2017-07-08T09:03:30.004Z</time>
</trkpt>
<trkpt lat="39.1848900" lon="-6.1542160">
<ele>385.632935</ele>
<time>2017-07-08T09:03:45.003Z</time>
</trkpt>
<trkpt lat="39.1849010" lon="-6.1541750">
<ele>385.632935</ele>
<time>2017-07-08T09:03:48.001Z</time>
</trkpt>
<trkpt lat="39.1849790" lon="-6.1539750">
<ele>386.120667</ele>
<time>2017-07-08T09:04:03.000Z</time>
</trkpt>
<trkpt lat="39.1850430" lon="-6.1537790">
<ele>386.120667</ele>
<time>2017-07-08T09:04:16.007Z</time>
</trkpt>
<trkpt lat="39.1851240" lon="-6.1535970">
<ele>386.577850</ele>
<time>2017-07-08T09:04:30.000Z</time>
</trkpt>
<trkpt lat="39.1852070" lon="-6.1533880">
<ele>387.065521</ele>
<time>2017-07-08T09:04:44.009Z</time>
</trkpt>
<trkpt lat="39.1852920" lon="-6.1531890">
<ele>387.553192</ele>
<time>2017-07-08T09:04:58.006Z</time>
</trkpt>
<trkpt lat="39.1853620" lon="-6.1529840">
<ele>388.040863</ele>
<time>2017-07-08T09:05:14.004Z</time>
</trkpt>
<trkpt lat="39.1854300" lon="-6.1527510">
<ele>388.498077</ele>
<time>2017-07-08T09:05:29.006Z</time>
</trkpt>
<trkpt lat="39.1854330" lon="-6.1527230">
<ele>388.498077</ele>
<time>2017-07-08T09:05:32.001Z</time>
</trkpt>
<trkpt lat="39.1854340" lon="-6.1526900">
<ele>388.498077</ele>
<time>2017-07-08T09:05:33.006Z</time>
</trkpt>
<trkpt lat="39.1854470" lon="-6.1525850">
<ele>388.498077</ele>
<time>2017-07-08T09:05:40.001Z</time>
</trkpt>
<trkpt lat="39.1854530" lon="-6.1525240">
<ele>388.498077</ele>
<time>2017-07-08T09:05:44.002Z</time>
</trkpt>
<trkpt lat="39.1854740" lon="-6.1523480">
<ele>388.040863</ele>
<time>2017-07-08T09:05:55.000Z</time>
</trkpt>
<trkpt lat="39.1855310" lon="-6.1520550">
<ele>387.065521</ele>
<time>2017-07-08T09:06:14.000Z</time>
</trkpt>
<trkpt lat="39.1855360" lon="-6.1519530">
<ele>387.553192</ele>
<time>2017-07-08T09:06:19.006Z</time>
</trkpt>
<trkpt lat="39.1855360" lon="-6.1517210">
<ele>387.065521</ele>
<time>2017-07-08T09:06:35.004Z</time>
</trkpt>
<trkpt lat="39.1855380" lon="-6.1515650">
<ele>387.065521</ele>
<time>2017-07-08T09:06:45.000Z</time>
</trkpt>
<trkpt lat="39.1855600" lon="-6.1513700">
<ele>386.577850</ele>
<time>2017-07-08T09:06:57.001Z</time>
</trkpt>
<trkpt lat="39.1855680" lon="-6.1510800">
<ele>385.632935</ele>
<time>2017-07-08T09:07:13.006Z</time>
</trkpt>
<trkpt lat="39.1855850" lon="-6.1507710">
<ele>385.632935</ele>
<time>2017-07-08T09:07:32.002Z</time>
</trkpt>
<trkpt lat="39.1856420" lon="-6.1505700">
<ele>386.120667</ele>
<time>2017-07-08T09:07:44.006Z</time>
</trkpt>
<trkpt lat="39.1856470" lon="-6.1504940">
<ele>385.632935</ele>
<time>2017-07-08T09:07:49.009Z</time>
</trkpt>
<trkpt lat="39.1856610" lon="-6.1502700">
<ele>386.120667</ele>
<time>2017-07-08T09:08:04.004Z</time>
</trkpt>
<trkpt lat="39.1856990" lon="-6.1502080">
<ele>386.120667</ele>
<time>2017-07-08T09:08:10.000Z</time>
</trkpt>
<trkpt lat="39.1857460" lon="-6.1501290">
<ele>386.120667</ele>
<time>2017-07-08T09:08:15.006Z</time>
</trkpt>
<trkpt lat="39.1857920" lon="-6.1500150">
<ele>386.120667</ele>
<time>2017-07-08T09:08:31.004Z</time>
</trkpt>
<trkpt lat="39.1857950" lon="-6.1500200">
<ele>385.632935</ele>
<time>2017-07-08T09:08:49.001Z</time>
</trkpt>
<trkpt lat="39.1857910" lon="-6.1499960">
<ele>386.120667</ele>
<time>2017-07-08T09:09:06.008Z</time>
</trkpt>
<trkpt lat="39.1857980" lon="-6.1499570">
<ele>386.577850</ele>
<time>2017-07-08T09:09:21.007Z</time>
</trkpt>
<trkpt lat="39.1858020" lon="-6.1499630">
<ele>386.120667</ele>
<time>2017-07-08T09:09:48.004Z</time>
</trkpt>
<trkpt lat="39.1858020" lon="-6.1499490">
<ele>387.065521</ele>
<time>2017-07-08T09:10:07.007Z</time>
</trkpt>
<trkpt lat="39.1858240" lon="-6.1498350">
<ele>386.577850</ele>
<time>2017-07-08T09:10:19.004Z</time>
</trkpt>
<trkpt lat="39.1858240" lon="-6.1497940">
<ele>386.577850</ele>
<time>2017-07-08T09:10:22.002Z</time>
</trkpt>
<trkpt lat="39.1858790" lon="-6.1495800">
<ele>386.577850</ele>
<time>2017-07-08T09:10:38.007Z</time>
</trkpt>
<trkpt lat="39.1859100" lon="-6.1494340">
<ele>387.065521</ele>
<time>2017-07-08T09:10:49.006Z</time>
</trkpt>
<trkpt lat="39.1859550" lon="-6.1492250">
<ele>386.577850</ele>
<time>2017-07-08T09:11:05.004Z</time>
</trkpt>
<trkpt lat="39.1859970" lon="-6.1490180">
<ele>387.065521</ele>
<time>2017-07-08T09:11:19.000Z</time>
</trkpt>
<trkpt lat="39.1860640" lon="-6.1488260">
<ele>387.553192</ele>
<time>2017-07-08T09:11:32.007Z</time>
</trkpt>
<trkpt lat="39.1860960" lon="-6.1487570">
<ele>387.553192</ele>
<time>2017-07-08T09:11:38.000Z</time>
</trkpt>
<trkpt lat="39.1861760" lon="-6.1485690">
<ele>388.040863</ele>
<time>2017-07-08T09:11:51.006Z</time>
</trkpt>
<trkpt lat="39.1862550" lon="-6.1484050">
<ele>388.498077</ele>
<time>2017-07-08T09:12:05.000Z</time>
</trkpt>
<trkpt lat="39.1863310" lon="-6.1481890">
<ele>388.040863</ele>
<time>2017-07-08T09:12:21.001Z</time>
</trkpt>
<trkpt lat="39.1863400" lon="-6.1480690">
<ele>388.040863</ele>
<time>2017-07-08T09:12:30.007Z</time>
</trkpt>
<trkpt lat="39.1863050" lon="-6.1477900">
<ele>387.065521</ele>
<time>2017-07-08T09:12:48.001Z</time>
</trkpt>
<trkpt lat="39.1863140" lon="-6.1475260">
<ele>386.577850</ele>
<time>2017-07-08T09:13:04.006Z</time>
</trkpt>
<trkpt lat="39.1863490" lon="-6.1472460">
<ele>386.120667</ele>
<time>2017-07-08T09:13:23.002Z</time>
</trkpt>
<trkpt lat="39.1863510" lon="-6.1471910">
<ele>385.632935</ele>
<time>2017-07-08T09:13:34.000Z</time>
</trkpt>
<trkpt lat="39.1863500" lon="-6.1471920">
<ele>385.632935</ele>
<time>2017-07-08T09:13:35.006Z</time>
</trkpt>
<trkpt lat="39.1863640" lon="-6.1471450">
<ele>386.120667</ele>
<time>2017-07-08T09:13:39.006Z</time>
</trkpt>
<trkpt lat="39.1864140" lon="-6.1469310">
<ele>386.577850</ele>
<time>2017-07-08T09:13:54.002Z</time>
</trkpt>
<trkpt lat="39.1864200" lon="-6.1468360">
<ele>386.577850</ele>
<time>2017-07-08T09:14:07.009Z</time>
</trkpt>
<trkpt lat="39.1864200" lon="-6.1468330">
<ele>387.065521</ele>
<time>2017-07-08T09:14:18.004Z</time>
</trkpt>
<trkpt lat="39.1864260" lon="-6.1468100">
<ele>387.065521</ele>
<time>2017-07-08T09:14:20.000Z</time>
</trkpt>
<trkpt lat="39.1864410" lon="-6.1467140">
<ele>387.065521</ele>
<time>2017-07-08T09:14:25.006Z</time>
</trkpt>
<trkpt lat="39.1864680" lon="-6.1464920">
<ele>387.553192</ele>
<time>2017-07-08T09:14:38.009Z</time>
</trkpt>
<trkpt lat="39.1865040" lon="-6.1462460">
<ele>388.498077</ele>
<time>2017-07-08T09:14:53.008Z</time>
</trkpt>
<trkpt lat="39.1865190" lon="-6.1460500">
<ele>389.473450</ele>
<time>2017-07-08T09:15:08.004Z</time>
</trkpt>
<trkpt lat="39.1865310" lon="-6.1459930">
<ele>389.961121</ele>
<time>2017-07-08T09:15:14.000Z</time>
</trkpt>
<trkpt lat="39.1865510" lon="-6.1459350">
<ele>389.961121</ele>
<time>2017-07-08T09:15:18.000Z</time>
</trkpt>
<trkpt lat="39.1865760" lon="-6.1458780">
<ele>390.418335</ele>
<time>2017-07-08T09:15:23.003Z</time>
</trkpt>
<trkpt lat="39.1866570" lon="-6.1457480">
<ele>391.393677</ele>
<time>2017-07-08T09:15:35.007Z</time>
</trkpt>
<trkpt lat="39.1866650" lon="-6.1457110">
<ele>391.881348</ele>
<time>2017-07-08T09:15:39.007Z</time>
</trkpt>
<trkpt lat="39.1866650" lon="-6.1455950">
<ele>391.881348</ele>
<time>2017-07-08T09:15:49.000Z</time>
</trkpt>
<trkpt lat="39.1866850" lon="-6.1453590">
<ele>392.826263</ele>
<time>2017-07-08T09:16:03.009Z</time>
</trkpt>
<trkpt lat="39.1866980" lon="-6.1451280">
<ele>392.826263</ele>
<time>2017-07-08T09:16:20.001Z</time>
</trkpt>
<trkpt lat="39.1866940" lon="-6.1450450">
<ele>393.313934</ele>
<time>2017-07-08T09:16:33.007Z</time>
</trkpt>
<trkpt lat="39.1866920" lon="-6.1450280">
<ele>393.801605</ele>
<time>2017-07-08T09:16:45.008Z</time>
</trkpt>
<trkpt lat="39.1866910" lon="-6.1450210">
<ele>394.289276</ele>
<time>2017-07-08T09:16:52.007Z</time>
</trkpt>
<trkpt lat="39.1867070" lon="-6.1449440">
<ele>393.801605</ele>
<time>2017-07-08T09:17:04.008Z</time>
</trkpt>
<trkpt lat="39.1867110" lon="-6.1448340">
<ele>393.313934</ele>
<time>2017-07-08T09:17:18.001Z</time>
</trkpt>
<trkpt lat="39.1867170" lon="-6.1447750">
<ele>393.313934</ele>
<time>2017-07-08T09:17:23.004Z</time>
</trkpt>
<trkpt lat="39.1867020" lon="-6.1445930">
<ele>392.826263</ele>
<time>2017-07-08T09:17:35.008Z</time>
</trkpt>
<trkpt lat="39.1866720" lon="-6.1443720">
<ele>392.369049</ele>
<time>2017-07-08T09:17:50.004Z</time>
</trkpt>
<trkpt lat="39.1866350" lon="-6.1441860">
<ele>391.881348</ele>
<time>2017-07-08T09:18:02.008Z</time>
</trkpt>
<trkpt lat="39.1866360" lon="-6.1441740">
<ele>391.881348</ele>
<time>2017-07-08T09:18:04.000Z</time>
</trkpt>
<trkpt lat="39.1866410" lon="-6.1441090">
<ele>391.881348</ele>
<time>2017-07-08T09:18:09.003Z</time>
</trkpt>
<trkpt lat="39.1866150" lon="-6.1440080">
<ele>391.881348</ele>
<time>2017-07-08T09:18:17.007Z</time>
</trkpt>
<trkpt lat="39.1865870" lon="-6.1439350">
<ele>391.393677</ele>
<time>2017-07-08T09:18:23.000Z</time>
</trkpt>
<trkpt lat="39.1865560" lon="-6.1438770">
<ele>391.881348</ele>
<time>2017-07-08T09:18:27.000Z</time>
</trkpt>
<trkpt lat="39.1865490" lon="-6.1437940">
<ele>391.881348</ele>
<time>2017-07-08T09:18:43.001Z</time>
</trkpt>
<trkpt lat="39.1865310" lon="-6.1436420">
<ele>392.826263</ele>
<time>2017-07-08T09:18:56.008Z</time>
</trkpt>
<trkpt lat="39.1865290" lon="-6.1436300">
<ele>392.826263</ele>
<time>2017-07-08T09:18:59.006Z</time>
</trkpt>
<trkpt lat="39.1865290" lon="-6.1435760">
<ele>393.313934</ele>
<time>2017-07-08T09:19:03.006Z</time>
</trkpt>
<trkpt lat="39.1865290" lon="-6.1434930">
<ele>393.801605</ele>
<time>2017-07-08T09:19:10.001Z</time>
</trkpt>
<trkpt lat="39.1865290" lon="-6.1434470">
<ele>394.289276</ele>
<time>2017-07-08T09:19:12.009Z</time>
</trkpt>
<trkpt lat="39.1865370" lon="-6.1432110">
<ele>396.209534</ele>
<time>2017-07-08T09:19:29.001Z</time>
</trkpt>
<trkpt lat="39.1865390" lon="-6.1431400">
<ele>396.209534</ele>
<time>2017-07-08T09:19:34.003Z</time>
</trkpt>
<trkpt lat="39.1865540" lon="-6.1429420">
<ele>398.129730</ele>
<time>2017-07-08T09:19:49.002Z</time>
</trkpt>
<trkpt lat="39.1865540" lon="-6.1428630">
<ele>398.586945</ele>
<time>2017-07-08T09:20:01.003Z</time>
</trkpt>
<trkpt lat="39.1865620" lon="-6.1426850">
<ele>399.562317</ele>
<time>2017-07-08T09:20:13.008Z</time>
</trkpt>
<trkpt lat="39.1865580" lon="-6.1426550">
<ele>399.562317</ele>
<time>2017-07-08T09:20:16.002Z</time>
</trkpt>
<trkpt lat="39.1865680" lon="-6.1424490">
<ele>400.537659</ele>
<time>2017-07-08T09:20:29.009Z</time>
</trkpt>
<trkpt lat="39.1865530" lon="-6.1422830">
<ele>400.994873</ele>
<time>2017-07-08T09:20:40.008Z</time>
</trkpt>
<trkpt lat="39.1865490" lon="-6.1421990">
<ele>400.049988</ele>
<time>2017-07-08T09:20:47.003Z</time>
</trkpt>
<trkpt lat="39.1864980" lon="-6.1419270">
<ele>399.074646</ele>
<time>2017-07-08T09:21:03.007Z</time>
</trkpt>
<trkpt lat="39.1864930" lon="-6.1418780">
<ele>398.586945</ele>
<time>2017-07-08T09:21:07.004Z</time>
</trkpt>
<trkpt lat="39.1864870" lon="-6.1418520">
<ele>398.586945</ele>
<time>2017-07-08T09:21:09.000Z</time>
</trkpt>
<trkpt lat="39.1864610" lon="-6.1416270">
<ele>397.642059</ele>
<time>2017-07-08T09:21:22.007Z</time>
</trkpt>
<trkpt lat="39.1864560" lon="-6.1415610">
<ele>397.154388</ele>
<time>2017-07-08T09:21:26.007Z</time>
</trkpt>
<trkpt lat="39.1864590" lon="-6.1414910">
<ele>396.666718</ele>
<time>2017-07-08T09:21:30.007Z</time>
</trkpt>
<trkpt lat="39.1864510" lon="-6.1412900">
<ele>396.666718</ele>
<time>2017-07-08T09:21:44.001Z</time>
</trkpt>
<trkpt lat="39.1864250" lon="-6.1411040">
<ele>395.234131</ele>
<time>2017-07-08T09:21:59.000Z</time>
</trkpt>
<trkpt lat="39.1864180" lon="-6.1411060">
<ele>395.721863</ele>
<time>2017-07-08T09:22:08.006Z</time>
</trkpt>
<trkpt lat="39.1864180" lon="-6.1410580">
<ele>395.234131</ele>
<time>2017-07-08T09:22:13.009Z</time>
</trkpt>
<trkpt lat="39.1864200" lon="-6.1409150">
<ele>395.721863</ele>
<time>2017-07-08T09:22:24.004Z</time>
</trkpt>
<trkpt lat="39.1864220" lon="-6.1408470">
<ele>395.721863</ele>
<time>2017-07-08T09:22:28.004Z</time>
</trkpt>
<trkpt lat="39.1864220" lon="-6.1408070">
<ele>395.234131</ele>
<time>2017-07-08T09:22:31.002Z</time>
</trkpt>
<trkpt lat="39.1864000" lon="-6.1406210">
<ele>395.234131</ele>
<time>2017-07-08T09:22:43.007Z</time>
</trkpt>
<trkpt lat="39.1863960" lon="-6.1405950">
<ele>395.234131</ele>
<time>2017-07-08T09:22:46.001Z</time>
</trkpt>
<trkpt lat="39.1863760" lon="-6.1403760">
<ele>395.721863</ele>
<time>2017-07-08T09:23:01.000Z</time>
</trkpt>
<trkpt lat="39.1863630" lon="-6.1402720">
<ele>396.209534</ele>
<time>2017-07-08T09:23:07.009Z</time>
</trkpt>
<trkpt lat="39.1863510" lon="-6.1401740">
<ele>396.209534</ele>
<time>2017-07-08T09:23:14.004Z</time>
</trkpt>
<trkpt lat="39.1863400" lon="-6.1401050">
<ele>396.666718</ele>
<time>2017-07-08T09:23:25.006Z</time>
</trkpt>
<trkpt lat="39.1862950" lon="-6.1400160">
<ele>396.666718</ele>
<time>2017-07-08T09:23:34.009Z</time>
</trkpt>
<trkpt lat="39.1862430" lon="-6.1399040">
<ele>396.666718</ele>
<time>2017-07-08T09:23:45.004Z</time>
</trkpt>
<trkpt lat="39.1862140" lon="-6.1397900">
<ele>397.154388</ele>
<time>2017-07-08T09:23:53.008Z</time>
</trkpt>
<trkpt lat="39.1861960" lon="-6.1395390">
<ele>396.666718</ele>
<time>2017-07-08T09:24:09.009Z</time>
</trkpt>
<trkpt lat="39.1861790" lon="-6.1392720">
<ele>395.234131</ele>
<time>2017-07-08T09:24:27.003Z</time>
</trkpt>
<trkpt lat="39.1861730" lon="-6.1392200">
<ele>395.234131</ele>
<time>2017-07-08T09:24:30.001Z</time>
</trkpt>
<trkpt lat="39.1860850" lon="-6.1390680">
<ele>394.746460</ele>
<time>2017-07-08T09:24:43.004Z</time>
</trkpt>
<trkpt lat="39.1860670" lon="-6.1390090">
<ele>394.289276</ele>
<time>2017-07-08T09:24:47.008Z</time>
</trkpt>
<trkpt lat="39.1860380" lon="-6.1387910">
<ele>393.313934</ele>
<time>2017-07-08T09:25:02.004Z</time>
</trkpt>
<trkpt lat="39.1860180" lon="-6.1386680">
<ele>392.826263</ele>
<time>2017-07-08T09:25:10.008Z</time>
</trkpt>
<trkpt lat="39.1860450" lon="-6.1384510">
<ele>393.313934</ele>
<time>2017-07-08T09:25:25.007Z</time>
</trkpt>
<trkpt lat="39.1860470" lon="-6.1384400">
<ele>393.313934</ele>
<time>2017-07-08T09:25:26.009Z</time>
</trkpt>
<trkpt lat="39.1860530" lon="-6.1383410">
<ele>394.289276</ele>
<time>2017-07-08T09:25:33.007Z</time>
</trkpt>
<trkpt lat="39.1860440" lon="-6.1383130">
<ele>394.289276</ele>
<time>2017-07-08T09:25:36.002Z</time>
</trkpt>
<trkpt lat="39.1860420" lon="-6.1381030">
<ele>394.746460</ele>
<time>2017-07-08T09:25:49.009Z</time>
</trkpt>
<trkpt lat="39.1860530" lon="-6.1379010">
<ele>395.234131</ele>
<time>2017-07-08T09:26:04.004Z</time>
</trkpt>
<trkpt lat="39.1860550" lon="-6.1378130">
<ele>395.721863</ele>
<time>2017-07-08T09:26:11.006Z</time>
</trkpt>
<trkpt lat="39.1860460" lon="-6.1377800">
<ele>396.209534</ele>
<time>2017-07-08T09:26:15.003Z</time>
</trkpt>
<trkpt lat="39.1860300" lon="-6.1375550">
<ele>397.154388</ele>
<time>2017-07-08T09:26:31.004Z</time>
</trkpt>
<trkpt lat="39.1860080" lon="-6.1373550">
<ele>397.642059</ele>
<time>2017-07-08T09:26:45.001Z</time>
</trkpt>
<trkpt lat="39.1859830" lon="-6.1371990">
<ele>399.074646</ele>
<time>2017-07-08T09:26:57.002Z</time>
</trkpt>
<trkpt lat="39.1860280" lon="-6.1369970">
<ele>400.994873</ele>
<time>2017-07-08T09:27:12.001Z</time>
</trkpt>
<trkpt lat="39.1860300" lon="-6.1369560">
<ele>401.482544</ele>
<time>2017-07-08T09:27:14.009Z</time>
</trkpt>
<trkpt lat="39.1860220" lon="-6.1368730">
<ele>401.970245</ele>
<time>2017-07-08T09:27:21.004Z</time>
</trkpt>
<trkpt lat="39.1860140" lon="-6.1367860">
<ele>401.970245</ele>
<time>2017-07-08T09:27:27.000Z</time>
</trkpt>
<trkpt lat="39.1859910" lon="-6.1366260">
<ele>402.457916</ele>
<time>2017-07-08T09:27:37.009Z</time>
</trkpt>
<trkpt lat="39.1859930" lon="-6.1365810">
<ele>402.915131</ele>
<time>2017-07-08T09:27:40.007Z</time>
</trkpt>
<trkpt lat="39.1859790" lon="-6.1364560">
<ele>403.890472</ele>
<time>2017-07-08T09:27:52.004Z</time>
</trkpt>
<trkpt lat="39.1859700" lon="-6.1363450">
<ele>404.378143</ele>
<time>2017-07-08T09:27:59.003Z</time>
</trkpt>
<trkpt lat="39.1859620" lon="-6.1362650">
<ele>404.835358</ele>
<time>2017-07-08T09:28:03.006Z</time>
</trkpt>
<trkpt lat="39.1859480" lon="-6.1360940">
<ele>405.323059</ele>
<time>2017-07-08T09:28:18.002Z</time>
</trkpt>
<trkpt lat="39.1859480" lon="-6.1360900">
<ele>405.323059</ele>
<time>2017-07-08T09:28:19.004Z</time>
</trkpt>
<trkpt lat="39.1859320" lon="-6.1358950">
<ele>405.810730</ele>
<time>2017-07-08T09:28:31.009Z</time>
</trkpt>
<trkpt lat="39.1859260" lon="-6.1357060">
<ele>405.810730</ele>
<time>2017-07-08T09:28:45.002Z</time>
</trkpt>
<trkpt lat="39.1859190" lon="-6.1354170">
<ele>406.755615</ele>
<time>2017-07-08T09:29:01.003Z</time>
</trkpt>
<trkpt lat="39.1859150" lon="-6.1351800">
<ele>407.273743</ele>
<time>2017-07-08T09:29:13.008Z</time>
</trkpt>
<trkpt lat="39.1859130" lon="-6.1351520">
<ele>407.273743</ele>
<time>2017-07-08T09:29:16.002Z</time>
</trkpt>
<trkpt lat="39.1858900" lon="-6.1349770">
<ele>407.730957</ele>
<time>2017-07-08T09:29:28.003Z</time>
</trkpt>
<trkpt lat="39.1858510" lon="-6.1348300">
<ele>407.730957</ele>
<time>2017-07-08T09:29:36.007Z</time>
</trkpt>
<trkpt lat="39.1858390" lon="-6.1347810">
<ele>407.730957</ele>
<time>2017-07-08T09:29:40.004Z</time>
</trkpt>
<trkpt lat="39.1857900" lon="-6.1346320">
<ele>408.218658</ele>
<time>2017-07-08T09:29:55.003Z</time>
</trkpt>
<trkpt lat="39.1857930" lon="-6.1346190">
<ele>408.218658</ele>
<time>2017-07-08T09:30:14.003Z</time>
</trkpt>
<trkpt lat="39.1857570" lon="-6.1344980">
<ele>408.218658</ele>
<time>2017-07-08T09:30:30.007Z</time>
</trkpt>
<trkpt lat="39.1857040" lon="-6.1343120">
<ele>408.706329</ele>
<time>2017-07-08T09:30:44.001Z</time>
</trkpt>
<trkpt lat="39.1856540" lon="-6.1340970">
<ele>408.706329</ele>
<time>2017-07-08T09:30:59.000Z</time>
</trkpt>
<trkpt lat="39.1856500" lon="-6.1340820">
<ele>409.194000</ele>
<time>2017-07-08T09:31:00.002Z</time>
</trkpt>
<trkpt lat="39.1856340" lon="-6.1340140">
<ele>409.194000</ele>
<time>2017-07-08T09:31:04.006Z</time>
</trkpt>
<trkpt lat="39.1855950" lon="-6.1338770">
<ele>409.651215</ele>
<time>2017-07-08T09:31:17.009Z</time>
</trkpt>
<trkpt lat="39.1856010" lon="-6.1338710">
<ele>409.194000</ele>
<time>2017-07-08T09:31:20.004Z</time>
</trkpt>
<trkpt lat="39.1857180" lon="-6.1337890">
<ele>409.651215</ele>
<time>2017-07-08T09:31:35.003Z</time>
</trkpt>
<trkpt lat="39.1857890" lon="-6.1337530">
<ele>410.138885</ele>
<time>2017-07-08T09:31:42.001Z</time>
</trkpt>
<trkpt lat="39.1858560" lon="-6.1337420">
<ele>410.138885</ele>
<time>2017-07-08T09:31:58.006Z</time>
</trkpt>
<trkpt lat="39.1858820" lon="-6.1337510">
<ele>410.138885</ele>
<time>2017-07-08T09:32:22.008Z</time>
</trkpt>
<trkpt lat="39.1859780" lon="-6.1337020">
<ele>410.626556</ele>
<time>2017-07-08T09:32:36.001Z</time>
</trkpt>
<trkpt lat="39.1860200" lon="-6.1336560">
<ele>410.626556</ele>
<time>2017-07-08T09:32:53.008Z</time>
</trkpt>
<trkpt lat="39.1860420" lon="-6.1336340">
<ele>411.114258</ele>
<time>2017-07-08T09:32:56.006Z</time>
</trkpt>
<trkpt lat="39.1860810" lon="-6.1335810">
<ele>411.114258</ele>
<time>2017-07-08T09:33:11.002Z</time>
</trkpt>
<trkpt lat="39.1861820" lon="-6.1334900">
<ele>412.059113</ele>
<time>2017-07-08T09:33:23.006Z</time>
</trkpt>
<trkpt lat="39.1862740" lon="-6.1333990">
<ele>412.546814</ele>
<time>2017-07-08T09:33:32.009Z</time>
</trkpt>
<trkpt lat="39.1864030" lon="-6.1332790">
<ele>413.491669</ele>
<time>2017-07-08T09:33:46.006Z</time>
</trkpt>
<trkpt lat="39.1865360" lon="-6.1330690">
<ele>413.979340</ele>
<time>2017-07-08T09:34:05.002Z</time>
</trkpt>
<trkpt lat="39.1866520" lon="-6.1328720">
<ele>414.954742</ele>
<time>2017-07-08T09:34:24.001Z</time>
</trkpt>
<trkpt lat="39.1866480" lon="-6.1328600">
<ele>414.954742</ele>
<time>2017-07-08T09:34:47.001Z</time>
</trkpt>
<trkpt lat="39.1866520" lon="-6.1328560">
<ele>414.954742</ele>
<time>2017-07-08T09:35:14.001Z</time>
</trkpt>
<trkpt lat="39.1866710" lon="-6.1328030">
<ele>415.442413</ele>
<time>2017-07-08T09:35:20.009Z</time>
</trkpt>
<trkpt lat="39.1866820" lon="-6.1327710">
<ele>415.442413</ele>
<time>2017-07-08T09:35:23.007Z</time>
</trkpt>
<trkpt lat="39.1867000" lon="-6.1327390">
<ele>415.442413</ele>
<time>2017-07-08T09:35:27.004Z</time>
</trkpt>
<trkpt lat="39.1867360" lon="-6.1326740">
<ele>415.899597</ele>
<time>2017-07-08T09:35:39.008Z</time>
</trkpt>
<trkpt lat="39.1867470" lon="-6.1326220">
<ele>416.387268</ele>
<time>2017-07-08T09:35:43.009Z</time>
</trkpt>
<trkpt lat="39.1868450" lon="-6.1325190">
<ele>416.874939</ele>
<time>2017-07-08T09:35:54.007Z</time>
</trkpt>
<trkpt lat="39.1868750" lon="-6.1324670">
<ele>416.874939</ele>
<time>2017-07-08T09:35:58.008Z</time>
</trkpt>
<trkpt lat="39.1869400" lon="-6.1323640">
<ele>417.362640</ele>
<time>2017-07-08T09:36:06.008Z</time>
</trkpt>
<trkpt lat="39.1869750" lon="-6.1323220">
<ele>417.819855</ele>
<time>2017-07-08T09:36:10.009Z</time>
</trkpt>
<trkpt lat="39.1870000" lon="-6.1323050">
<ele>418.307526</ele>
<time>2017-07-08T09:36:13.003Z</time>
</trkpt>
<trkpt lat="39.1871280" lon="-6.1321760">
<ele>419.282867</ele>
<time>2017-07-08T09:36:28.002Z</time>
</trkpt>
<trkpt lat="39.1871580" lon="-6.1321370">
<ele>419.282867</ele>
<time>2017-07-08T09:36:32.003Z</time>
</trkpt>
<trkpt lat="39.1872250" lon="-6.1321020">
<ele>420.227753</ele>
<time>2017-07-08T09:36:36.006Z</time>
</trkpt>
<trkpt lat="39.1872870" lon="-6.1320050">
<ele>420.227753</ele>
<time>2017-07-08T09:36:44.007Z</time>
</trkpt>
<trkpt lat="39.1873360" lon="-6.1319560">
<ele>420.715454</ele>
<time>2017-07-08T09:36:52.008Z</time>
</trkpt>
<trkpt lat="39.1874840" lon="-6.1317810">
<ele>421.690796</ele>
<time>2017-07-08T09:37:10.001Z</time>
</trkpt>
<trkpt lat="39.1875210" lon="-6.1317320">
<ele>421.690796</ele>
<time>2017-07-08T09:37:15.004Z</time>
</trkpt>
<trkpt lat="39.1875790" lon="-6.1316790">
<ele>422.148010</ele>
<time>2017-07-08T09:37:19.008Z</time>
</trkpt>
<trkpt lat="39.1877090" lon="-6.1315120">
<ele>423.611053</ele>
<time>2017-07-08T09:37:34.007Z</time>
</trkpt>
<trkpt lat="39.1877760" lon="-6.1313020">
<ele>424.555939</ele>
<time>2017-07-08T09:37:49.006Z</time>
</trkpt>
<trkpt lat="39.1877960" lon="-6.1311840">
<ele>424.555939</ele>
<time>2017-07-08T09:37:57.006Z</time>
</trkpt>
<trkpt lat="39.1877540" lon="-6.1311080">
<ele>424.555939</ele>
<time>2017-07-08T09:38:04.001Z</time>
</trkpt>
<trkpt lat="39.1875940" lon="-6.1309730">
<ele>423.611053</ele>
<time>2017-07-08T09:38:23.001Z</time>
</trkpt>
<trkpt lat="39.1875940" lon="-6.1309690">
<ele>423.611053</ele>
<time>2017-07-08T09:38:36.007Z</time>
</trkpt>
<trkpt lat="39.1875800" lon="-6.1309000">
<ele>424.068268</ele>
<time>2017-07-08T09:38:43.006Z</time>
</trkpt>
<trkpt lat="39.1876090" lon="-6.1308380">
<ele>424.555939</ele>
<time>2017-07-08T09:38:52.009Z</time>
</trkpt>
<trkpt lat="39.1876090" lon="-6.1308190">
<ele>425.043610</ele>
<time>2017-07-08T09:39:05.000Z</time>
</trkpt>
<trkpt lat="39.1876100" lon="-6.1308150">
<ele>425.531281</ele>
<time>2017-07-08T09:39:29.002Z</time>
</trkpt>
<trkpt lat="39.1876160" lon="-6.1308130">
<ele>425.043610</ele>
<time>2017-07-08T09:39:30.007Z</time>
</trkpt>
<trkpt lat="39.1876330" lon="-6.1307920">
<ele>425.043610</ele>
<time>2017-07-08T09:39:33.002Z</time>
</trkpt>
<trkpt lat="39.1877030" lon="-6.1307260">
<ele>425.531281</ele>
<time>2017-07-08T09:39:41.006Z</time>
</trkpt>
<trkpt lat="39.1877850" lon="-6.1305740">
<ele>425.988464</ele>
<time>2017-07-08T09:39:54.009Z</time>
</trkpt>
<trkpt lat="39.1878220" lon="-6.1305160">
<ele>426.963867</ele>
<time>2017-07-08T09:40:08.003Z</time>
</trkpt>
<trkpt lat="39.1878790" lon="-6.1304090">
<ele>426.963867</ele>
<time>2017-07-08T09:40:19.001Z</time>
</trkpt>
<trkpt lat="39.1879650" lon="-6.1303280">
<ele>427.908722</ele>
<time>2017-07-08T09:40:30.000Z</time>
</trkpt>
<trkpt lat="39.1880290" lon="-6.1303130">
<ele>427.908722</ele>
<time>2017-07-08T09:40:42.001Z</time>
</trkpt>
<trkpt lat="39.1881260" lon="-6.1302320">
<ele>428.396393</ele>
<time>2017-07-08T09:40:55.004Z</time>
</trkpt>
<trkpt lat="39.1882120" lon="-6.1301530">
<ele>429.371735</ele>
<time>2017-07-08T09:41:06.003Z</time>
</trkpt>
<trkpt lat="39.1882900" lon="-6.1301010">
<ele>429.371735</ele>
<time>2017-07-08T09:41:17.002Z</time>
</trkpt>
<trkpt lat="39.1883430" lon="-6.1300970">
<ele>430.316650</ele>
<time>2017-07-08T09:41:24.000Z</time>
</trkpt>
<trkpt lat="39.1884570" lon="-6.1301620">
<ele>431.291992</ele>
<time>2017-07-08T09:41:38.009Z</time>
</trkpt>
<trkpt lat="39.1885750" lon="-6.1301510">
<ele>432.236877</ele>
<time>2017-07-08T09:41:51.000Z</time>
</trkpt>
<trkpt lat="39.1886700" lon="-6.1301100">
<ele>433.212250</ele>
<time>2017-07-08T09:42:04.003Z</time>
</trkpt>
<trkpt lat="39.1887450" lon="-6.1300900">
<ele>433.699921</ele>
<time>2017-07-08T09:42:14.000Z</time>
</trkpt>
<trkpt lat="39.1888760" lon="-6.1300980">
<ele>434.644806</ele>
<time>2017-07-08T09:42:28.009Z</time>
</trkpt>
<trkpt lat="39.1890330" lon="-6.1301030">
<ele>436.107849</ele>
<time>2017-07-08T09:42:45.000Z</time>
</trkpt>
<trkpt lat="39.1890940" lon="-6.1301090">
<ele>436.565063</ele>
<time>2017-07-08T09:43:01.001Z</time>
</trkpt>
<trkpt lat="39.1891710" lon="-6.1301140">
<ele>437.540405</ele>
<time>2017-07-08T09:43:17.006Z</time>
</trkpt>
<trkpt lat="39.1892010" lon="-6.1301060">
<ele>438.028076</ele>
<time>2017-07-08T09:43:26.009Z</time>
</trkpt>
<trkpt lat="39.1893470" lon="-6.1300620">
<ele>439.460663</ele>
<time>2017-07-08T09:43:39.000Z</time>
</trkpt>
<trkpt lat="39.1894530" lon="-6.1299930">
<ele>440.405518</ele>
<time>2017-07-08T09:43:51.001Z</time>
</trkpt>
<trkpt lat="39.1896220" lon="-6.1298880">
<ele>440.893188</ele>
<time>2017-07-08T09:44:07.002Z</time>
</trkpt>
<trkpt lat="39.1897680" lon="-6.1298000">
<ele>442.325745</ele>
<time>2017-07-08T09:44:23.004Z</time>
</trkpt>
<trkpt lat="39.1898970" lon="-6.1297990">
<ele>442.813446</ele>
<time>2017-07-08T09:44:38.006Z</time>
</trkpt>
<trkpt lat="39.1899180" lon="-6.1298280">
<ele>442.813446</ele>
<time>2017-07-08T09:45:01.006Z</time>
</trkpt>
<trkpt lat="39.1900750" lon="-6.1298950">
<ele>443.301117</ele>
<time>2017-07-08T09:45:17.004Z</time>
</trkpt>
<trkpt lat="39.1902300" lon="-6.1299320">
<ele>445.221344</ele>
<time>2017-07-08T09:45:32.003Z</time>
</trkpt>
<trkpt lat="39.1903220" lon="-6.1300230">
<ele>447.141602</ele>
<time>2017-07-08T09:45:44.004Z</time>
</trkpt>
<trkpt lat="39.1903470" lon="-6.1300030">
<ele>447.141602</ele>
<time>2017-07-08T09:45:55.006Z</time>
</trkpt>
<trkpt lat="39.1903570" lon="-6.1300050">
<ele>447.141602</ele>
<time>2017-07-08T09:46:07.003Z</time>
</trkpt>
<trkpt lat="39.1904420" lon="-6.1300130">
<ele>448.116943</ele>
<time>2017-07-08T09:46:15.004Z</time>
</trkpt>
<trkpt lat="39.1905330" lon="-6.1300310">
<ele>449.061859</ele>
<time>2017-07-08T09:46:26.006Z</time>
</trkpt>
<trkpt lat="39.1905430" lon="-6.1300290">
<ele>449.061859</ele>
<time>2017-07-08T09:46:45.002Z</time>
</trkpt>
<trkpt lat="39.1905430" lon="-6.1300260">
<ele>449.061859</ele>
<time>2017-07-08T09:47:15.000Z</time>
</trkpt>
<trkpt lat="39.1905490" lon="-6.1300280">
<ele>449.061859</ele>
<time>2017-07-08T09:47:55.007Z</time>
</trkpt>
<trkpt lat="39.1905470" lon="-6.1300270">
<ele>448.604645</ele>
<time>2017-07-08T09:48:18.003Z</time>
</trkpt>
<trkpt lat="39.1905610" lon="-6.1300210">
<ele>448.604645</ele>
<time>2017-07-08T09:48:34.004Z</time>
</trkpt>
<trkpt lat="39.1905630" lon="-6.1300250">
<ele>449.061859</ele>
<time>2017-07-08T09:48:52.001Z</time>
</trkpt>
<trkpt lat="39.1905670" lon="-6.1300350">
<ele>449.549530</ele>
<time>2017-07-08T09:49:08.006Z</time>
</trkpt>
<trkpt lat="39.1906490" lon="-6.1300530">
<ele>450.037201</ele>
<time>2017-07-08T09:49:20.004Z</time>
</trkpt>
<trkpt lat="39.1907440" lon="-6.1300840">
<ele>451.012543</ele>
<time>2017-07-08T09:49:31.006Z</time>
</trkpt>
<trkpt lat="39.1908660" lon="-6.1301360">
<ele>452.445129</ele>
<time>2017-07-08T09:49:46.001Z</time>
</trkpt>
<trkpt lat="39.1909960" lon="-6.1301760">
<ele>454.365356</ele>
<time>2017-07-08T09:50:02.006Z</time>
</trkpt>
<trkpt lat="39.1910790" lon="-6.1302010">
<ele>455.797913</ele>
<time>2017-07-08T09:50:18.004Z</time>
</trkpt>
<trkpt lat="39.1912530" lon="-6.1302420">
<ele>457.230469</ele>
<time>2017-07-08T09:50:36.001Z</time>
</trkpt>
<trkpt lat="39.1913970" lon="-6.1303300">
<ele>459.181213</ele>
<time>2017-07-08T09:50:56.003Z</time>
</trkpt>
<trkpt lat="39.1915020" lon="-6.1303770">
<ele>461.101440</ele>
<time>2017-07-08T09:51:11.002Z</time>
</trkpt>
<trkpt lat="39.1915640" lon="-6.1303520">
<ele>462.533997</ele>
<time>2017-07-08T09:51:19.006Z</time>
</trkpt>
<trkpt lat="39.1915810" lon="-6.1303280">
<ele>462.533997</ele>
<time>2017-07-08T09:51:22.000Z</time>
</trkpt>
<trkpt lat="39.1917310" lon="-6.1302980">
<ele>464.454254</ele>
<time>2017-07-08T09:51:38.002Z</time>
</trkpt>
<trkpt lat="39.1918220" lon="-6.1302280">
<ele>465.429596</ele>
<time>2017-07-08T09:51:50.006Z</time>
</trkpt>
<trkpt lat="39.1918610" lon="-6.1301980">
<ele>465.886810</ele>
<time>2017-07-08T09:52:08.000Z</time>
</trkpt>
<trkpt lat="39.1918590" lon="-6.1301570">
<ele>466.374481</ele>
<time>2017-07-08T09:52:24.001Z</time>
</trkpt>
<trkpt lat="39.1918490" lon="-6.1301270">
<ele>465.886810</ele>
<time>2017-07-08T09:52:44.003Z</time>
</trkpt>
<trkpt lat="39.1918500" lon="-6.1301130">
<ele>465.886810</ele>
<time>2017-07-08T09:52:44.006Z</time>
</trkpt>
<trkpt lat="39.1918820" lon="-6.1299630">
<ele>466.862152</ele>
<time>2017-07-08T09:52:56.007Z</time>
</trkpt>
<trkpt lat="39.1919890" lon="-6.1298800">
<ele>466.862152</ele>
<time>2017-07-08T09:53:12.008Z</time>
</trkpt>
<trkpt lat="39.1920700" lon="-6.1297970">
<ele>468.294739</ele>
<time>2017-07-08T09:53:30.002Z</time>
</trkpt>
<trkpt lat="39.1921050" lon="-6.1297370">
<ele>469.270081</ele>
<time>2017-07-08T09:53:46.003Z</time>
</trkpt>
<trkpt lat="39.1921230" lon="-6.1297280">
<ele>469.727264</ele>
<time>2017-07-08T09:54:04.000Z</time>
</trkpt>
<trkpt lat="39.1921410" lon="-6.1296770">
<ele>469.727264</ele>
<time>2017-07-08T09:54:09.006Z</time>
</trkpt>
<trkpt lat="39.1921690" lon="-6.1295330">
<ele>469.727264</ele>
<time>2017-07-08T09:54:25.008Z</time>
</trkpt>
<trkpt lat="39.1921760" lon="-6.1294360">
<ele>470.214935</ele>
<time>2017-07-08T09:54:33.008Z</time>
</trkpt>
<trkpt lat="39.1921740" lon="-6.1293870">
<ele>470.214935</ele>
<time>2017-07-08T09:54:36.006Z</time>
</trkpt>
<trkpt lat="39.1922340" lon="-6.1292940">
<ele>471.647522</ele>
<time>2017-07-08T09:54:50.000Z</time>
</trkpt>
<trkpt lat="39.1922970" lon="-6.1291610">
<ele>474.055450</ele>
<time>2017-07-08T09:55:07.003Z</time>
</trkpt>
<trkpt lat="39.1923140" lon="-6.1291450">
<ele>474.055450</ele>
<time>2017-07-08T09:55:23.008Z</time>
</trkpt>
<trkpt lat="39.1923180" lon="-6.1291300">
<ele>474.055450</ele>
<time>2017-07-08T09:55:29.001Z</time>
</trkpt>
<trkpt lat="39.1923020" lon="-6.1290490">
<ele>475.030792</ele>
<time>2017-07-08T09:55:37.001Z</time>
</trkpt>
<trkpt lat="39.1923880" lon="-6.1289490">
<ele>476.951050</ele>
<time>2017-07-08T09:55:53.003Z</time>
</trkpt>
<trkpt lat="39.1924790" lon="-6.1289570">
<ele>479.358948</ele>
<time>2017-07-08T09:56:11.000Z</time>
</trkpt>
<trkpt lat="39.1926160" lon="-6.1289760">
<ele>481.766876</ele>
<time>2017-07-08T09:56:27.001Z</time>
</trkpt>
<trkpt lat="39.1927050" lon="-6.1288950">
<ele>483.687134</ele>
<time>2017-07-08T09:56:42.000Z</time>
</trkpt>
<trkpt lat="39.1927890" lon="-6.1288020">
<ele>484.174805</ele>
<time>2017-07-08T09:56:56.009Z</time>
</trkpt>
<trkpt lat="39.1928740" lon="-6.1286880">
<ele>486.095062</ele>
<time>2017-07-08T09:57:14.003Z</time>
</trkpt>
<trkpt lat="39.1929900" lon="-6.1285990">
<ele>488.502960</ele>
<time>2017-07-08T09:57:30.007Z</time>
</trkpt>
<trkpt lat="39.1930640" lon="-6.1286020">
<ele>489.935516</ele>
<time>2017-07-08T09:57:50.009Z</time>
</trkpt>
<trkpt lat="39.1931830" lon="-6.1285270">
<ele>491.368073</ele>
<time>2017-07-08T09:58:08.006Z</time>
</trkpt>
<trkpt lat="39.1932820" lon="-6.1284120">
<ele>492.800659</ele>
<time>2017-07-08T09:58:24.007Z</time>
</trkpt>
<trkpt lat="39.1933700" lon="-6.1282710">
<ele>493.776001</ele>
<time>2017-07-08T09:58:43.007Z</time>
</trkpt>
<trkpt lat="39.1934010" lon="-6.1281420">
<ele>493.288330</ele>
<time>2017-07-08T09:58:59.008Z</time>
</trkpt>
<trkpt lat="39.1934220" lon="-6.1280700">
<ele>492.800659</ele>
<time>2017-07-08T09:59:11.009Z</time>
</trkpt>
<trkpt lat="39.1934680" lon="-6.1280160">
<ele>492.800659</ele>
<time>2017-07-08T09:59:18.004Z</time>
</trkpt>
<trkpt lat="39.1935410" lon="-6.1279340">
<ele>493.776001</ele>
<time>2017-07-08T09:59:26.008Z</time>
</trkpt>
<trkpt lat="39.1935880" lon="-6.1278900">
<ele>493.776001</ele>
<time>2017-07-08T09:59:41.007Z</time>
</trkpt>
<trkpt lat="39.1935740" lon="-6.1278820">
<ele>493.776001</ele>
<time>2017-07-08T10:00:07.001Z</time>
</trkpt>
<trkpt lat="39.1935640" lon="-6.1278780">
<ele>493.288330</ele>
<time>2017-07-08T10:00:31.007Z</time>
</trkpt>
<trkpt lat="39.1935820" lon="-6.1278720">
<ele>494.263672</ele>
<time>2017-07-08T10:00:50.006Z</time>
</trkpt>
<trkpt lat="39.1936130" lon="-6.1278630">
<ele>494.751343</ele>
<time>2017-07-08T10:00:54.003Z</time>
</trkpt>
<trkpt lat="39.1936880" lon="-6.1278290">
<ele>495.696259</ele>
<time>2017-07-08T10:01:02.007Z</time>
</trkpt>
<trkpt lat="39.1937550" lon="-6.1277980">
<ele>497.128815</ele>
<time>2017-07-08T10:01:10.008Z</time>
</trkpt>
<trkpt lat="39.1938800" lon="-6.1277560">
<ele>498.591858</ele>
<time>2017-07-08T10:01:25.003Z</time>
</trkpt>
<trkpt lat="39.1939420" lon="-6.1276870">
<ele>499.536713</ele>
<time>2017-07-08T10:01:37.004Z</time>
</trkpt>
<trkpt lat="39.1939660" lon="-6.1276820">
<ele>500.024414</ele>
<time>2017-07-08T10:01:52.003Z</time>
</trkpt>
<trkpt lat="39.1939690" lon="-6.1276810">
<ele>500.024414</ele>
<time>2017-07-08T10:02:10.000Z</time>
</trkpt>
<trkpt lat="39.1939690" lon="-6.1276760">
<ele>500.024414</ele>
<time>2017-07-08T10:04:18.002Z</time>
</trkpt>
<trkpt lat="39.1939750" lon="-6.1277070">
<ele>500.969269</ele>
<time>2017-07-08T10:04:31.009Z</time>
</trkpt>
<trkpt lat="39.1939520" lon="-6.1277850">
<ele>503.377197</ele>
<time>2017-07-08T10:06:18.006Z</time>
</trkpt>
<trkpt lat="39.1939170" lon="-6.1278490">
<ele>504.840240</ele>
<time>2017-07-08T10:06:30.007Z</time>
</trkpt>
<trkpt lat="39.1938640" lon="-6.1279270">
<ele>505.297455</ele>
<time>2017-07-08T10:06:41.003Z</time>
</trkpt>
<trkpt lat="39.1938610" lon="-6.1279910">
<ele>505.297455</ele>
<time>2017-07-08T10:06:45.003Z</time>
</trkpt>
<trkpt lat="39.1938190" lon="-6.1281090">
<ele>506.272797</ele>
<time>2017-07-08T10:06:54.009Z</time>
</trkpt>
<trkpt lat="39.1938240" lon="-6.1282130">
<ele>506.760468</ele>
<time>2017-07-08T10:07:01.008Z</time>
</trkpt>
<trkpt lat="39.1938230" lon="-6.1282400">
<ele>503.864868</ele>
<time>2017-07-08T10:07:04.002Z</time>
</trkpt>
<trkpt lat="39.1938020" lon="-6.1282890">
<ele>508.193054</ele>
<time>2017-07-08T10:07:16.003Z</time>
</trkpt>
<trkpt lat="39.1937830" lon="-6.1283140">
<ele>507.705353</ele>
<time>2017-07-08T10:07:30.000Z</time>
</trkpt>
<trkpt lat="39.1937790" lon="-6.1283220">
<ele>507.705353</ele>
<time>2017-07-08T10:07:38.001Z</time>
</trkpt>
<trkpt lat="39.1937660" lon="-6.1283690">
<ele>508.193054</ele>
<time>2017-07-08T10:07:44.009Z</time>
</trkpt>
<trkpt lat="39.1937450" lon="-6.1284530">
<ele>507.217682</ele>
<time>2017-07-08T10:07:58.006Z</time>
</trkpt>
<trkpt lat="39.1937180" lon="-6.1284950">
<ele>506.760468</ele>
<time>2017-07-08T10:08:02.006Z</time>
</trkpt>
<trkpt lat="39.1936550" lon="-6.1285570">
<ele>505.785126</ele>
<time>2017-07-08T10:08:11.009Z</time>
</trkpt>
<trkpt lat="39.1937750" lon="-6.1286950">
<ele>507.705353</ele>
<time>2017-07-08T10:08:29.003Z</time>
</trkpt>
<trkpt lat="39.1938880" lon="-6.1288050">
<ele>510.113281</ele>
<time>2017-07-08T10:08:45.004Z</time>
</trkpt>
<trkpt lat="39.1939850" lon="-6.1288910">
<ele>513.008850</ele>
<time>2017-07-08T10:09:00.003Z</time>
</trkpt>
<trkpt lat="39.1940730" lon="-6.1289250">
<ele>514.929138</ele>
<time>2017-07-08T10:09:15.002Z</time>
</trkpt>
<trkpt lat="39.1941260" lon="-6.1290090">
<ele>517.337036</ele>
<time>2017-07-08T10:09:31.003Z</time>
</trkpt>
<trkpt lat="39.1942210" lon="-6.1291690">
<ele>519.744934</ele>
<time>2017-07-08T10:09:49.000Z</time>
</trkpt>
<trkpt lat="39.1942360" lon="-6.1292420">
<ele>520.202148</ele>
<time>2017-07-08T10:09:57.001Z</time>
</trkpt>
<trkpt lat="39.1942250" lon="-6.1294120">
<ele>522.122375</ele>
<time>2017-07-08T10:10:13.006Z</time>
</trkpt>
<trkpt lat="39.1942320" lon="-6.1294810">
<ele>523.097717</ele>
<time>2017-07-08T10:10:26.009Z</time>
</trkpt>
<trkpt lat="39.1942400" lon="-6.1295960">
<ele>525.505676</ele>
<time>2017-07-08T10:10:41.008Z</time>
</trkpt>
<trkpt lat="39.1942660" lon="-6.1297110">
<ele>528.370789</ele>
<time>2017-07-08T10:10:56.007Z</time>
</trkpt>
<trkpt lat="39.1942910" lon="-6.1297290">
<ele>530.291077</ele>
<time>2017-07-08T10:11:08.008Z</time>
</trkpt>
<trkpt lat="39.1943160" lon="-6.1297640">
<ele>532.241760</ele>
<time>2017-07-08T10:11:20.009Z</time>
</trkpt>
<trkpt lat="39.1943440" lon="-6.1297980">
<ele>534.161987</ele>
<time>2017-07-08T10:11:38.003Z</time>
</trkpt>
<trkpt lat="39.1943440" lon="-6.1299310">
<ele>536.539429</ele>
<time>2017-07-08T10:11:51.009Z</time>
</trkpt>
<trkpt lat="39.1943380" lon="-6.1301120">
<ele>538.490173</ele>
<time>2017-07-08T10:12:09.003Z</time>
</trkpt>
<trkpt lat="39.1943150" lon="-6.1303270">
<ele>539.435059</ele>
<time>2017-07-08T10:12:24.002Z</time>
</trkpt>
<trkpt lat="39.1943090" lon="-6.1303410">
<ele>539.435059</ele>
<time>2017-07-08T10:12:36.006Z</time>
</trkpt>
<trkpt lat="39.1943010" lon="-6.1303370">
<ele>539.435059</ele>
<time>2017-07-08T10:13:03.006Z</time>
</trkpt>
<trkpt lat="39.1942990" lon="-6.1303560">
<ele>538.947327</ele>
<time>2017-07-08T10:13:22.002Z</time>
</trkpt>
<trkpt lat="39.1942640" lon="-6.1305420">
<ele>538.947327</ele>
<time>2017-07-08T10:13:37.001Z</time>
</trkpt>
<trkpt lat="39.1942640" lon="-6.1305560">
<ele>539.435059</ele>
<time>2017-07-08T10:13:38.004Z</time>
</trkpt>
<trkpt lat="39.1942580" lon="-6.1306620">
<ele>540.410400</ele>
<time>2017-07-08T10:13:53.003Z</time>
</trkpt>
<trkpt lat="39.1942460" lon="-6.1306490">
<ele>540.410400</ele>
<time>2017-07-08T10:14:13.008Z</time>
</trkpt>
<trkpt lat="39.1942500" lon="-6.1306570">
<ele>540.410400</ele>
<time>2017-07-08T10:14:43.006Z</time>
</trkpt>
<trkpt lat="39.1942650" lon="-6.1307360">
<ele>541.842957</ele>
<time>2017-07-08T10:14:59.004Z</time>
</trkpt>
<trkpt lat="39.1942670" lon="-6.1308030">
<ele>542.787842</ele>
<time>2017-07-08T10:15:05.000Z</time>
</trkpt>
<trkpt lat="39.1942130" lon="-6.1310110">
<ele>542.787842</ele>
<time>2017-07-08T10:15:21.001Z</time>
</trkpt>
<trkpt lat="39.1941870" lon="-6.1311390">
<ele>544.708069</ele>
<time>2017-07-08T10:15:33.002Z</time>
</trkpt>
<trkpt lat="39.1941910" lon="-6.1311310">
<ele>545.683472</ele>
<time>2017-07-08T10:15:48.001Z</time>
</trkpt>
<trkpt lat="39.1941870" lon="-6.1311600">
<ele>544.708069</ele>
<time>2017-07-08T10:16:07.000Z</time>
</trkpt>
<trkpt lat="39.1941830" lon="-6.1311650">
<ele>545.195740</ele>
<time>2017-07-08T10:16:09.008Z</time>
</trkpt>
<trkpt lat="39.1941620" lon="-6.1313880">
<ele>544.250854</ele>
<time>2017-07-08T10:16:26.000Z</time>
</trkpt>
<trkpt lat="39.1941720" lon="-6.1315960">
<ele>545.195740</ele>
<time>2017-07-08T10:16:42.001Z</time>
</trkpt>
<trkpt lat="39.1941640" lon="-6.1316360">
<ele>545.195740</ele>
<time>2017-07-08T10:16:57.000Z</time>
</trkpt>
<trkpt lat="39.1941640" lon="-6.1316390">
<ele>545.195740</ele>
<time>2017-07-08T10:17:01.000Z</time>
</trkpt>
<trkpt lat="39.1941430" lon="-6.1318890">
<ele>545.683472</ele>
<time>2017-07-08T10:17:15.009Z</time>
</trkpt>
<trkpt lat="39.1941430" lon="-6.1319080">
<ele>545.683472</ele>
<time>2017-07-08T10:17:17.002Z</time>
</trkpt>
<trkpt lat="39.1941720" lon="-6.1321090">
<ele>548.579041</ele>
<time>2017-07-08T10:17:33.003Z</time>
</trkpt>
<trkpt lat="39.1941810" lon="-6.1322280">
<ele>550.956482</ele>
<time>2017-07-08T10:17:48.002Z</time>
</trkpt>
<trkpt lat="39.1941620" lon="-6.1323190">
<ele>552.419556</ele>
<time>2017-07-08T10:17:59.001Z</time>
</trkpt>
<trkpt lat="39.1941770" lon="-6.1324130">
<ele>555.772339</ele>
<time>2017-07-08T10:18:12.007Z</time>
</trkpt>
<trkpt lat="39.1942080" lon="-6.1324780">
<ele>558.180237</ele>
<time>2017-07-08T10:18:27.003Z</time>
</trkpt>
<trkpt lat="39.1942550" lon="-6.1325830">
<ele>560.588135</ele>
<time>2017-07-08T10:18:43.004Z</time>
</trkpt>
<trkpt lat="39.1942790" lon="-6.1327070">
<ele>562.996094</ele>
<time>2017-07-08T10:18:55.009Z</time>
</trkpt>
<trkpt lat="39.1942820" lon="-6.1328020">
<ele>564.916321</ele>
<time>2017-07-08T10:19:08.000Z</time>
</trkpt>
<trkpt lat="39.1942530" lon="-6.1328270">
<ele>564.428650</ele>
<time>2017-07-08T10:19:24.001Z</time>
</trkpt>
<trkpt lat="39.1942230" lon="-6.1328640">
<ele>563.940918</ele>
<time>2017-07-08T10:19:29.004Z</time>
</trkpt>
<trkpt lat="39.1942330" lon="-6.1329460">
<ele>564.428650</ele>
<time>2017-07-08T10:19:37.004Z</time>
</trkpt>
<trkpt lat="39.1942500" lon="-6.1330100">
<ele>565.403992</ele>
<time>2017-07-08T10:19:41.008Z</time>
</trkpt>
<trkpt lat="39.1942120" lon="-6.1332100">
<ele>565.861206</ele>
<time>2017-07-08T10:19:56.004Z</time>
</trkpt>
<trkpt lat="39.1941980" lon="-6.1332310">
<ele>565.861206</ele>
<time>2017-07-08T10:19:57.009Z</time>
</trkpt>
<trkpt lat="39.1941480" lon="-6.1334250">
<ele>567.324280</ele>
<time>2017-07-08T10:20:12.008Z</time>
</trkpt>
<trkpt lat="39.1940820" lon="-6.1335910">
<ele>569.244446</ele>
<time>2017-07-08T10:20:27.004Z</time>
</trkpt>
<trkpt lat="39.1940530" lon="-6.1337440">
<ele>571.164734</ele>
<time>2017-07-08T10:20:38.006Z</time>
</trkpt>
<trkpt lat="39.1940390" lon="-6.1339040">
<ele>572.109619</ele>
<time>2017-07-08T10:20:51.009Z</time>
</trkpt>
<trkpt lat="39.1940480" lon="-6.1340980">
<ele>573.572632</ele>
<time>2017-07-08T10:21:05.006Z</time>
</trkpt>
<trkpt lat="39.1940650" lon="-6.1343680">
<ele>575.005188</ele>
<time>2017-07-08T10:21:23.000Z</time>
</trkpt>
<trkpt lat="39.1940640" lon="-6.1344390">
<ele>575.005188</ele>
<time>2017-07-08T10:21:27.000Z</time>
</trkpt>
<trkpt lat="39.1940490" lon="-6.1346860">
<ele>576.437744</ele>
<time>2017-07-08T10:21:41.009Z</time>
</trkpt>
<trkpt lat="39.1940210" lon="-6.1349010">
<ele>578.357971</ele>
<time>2017-07-08T10:21:56.008Z</time>
</trkpt>
<trkpt lat="39.1940030" lon="-6.1349560">
<ele>578.845642</ele>
<time>2017-07-08T10:22:00.008Z</time>
</trkpt>
<trkpt lat="39.1939740" lon="-6.1351850">
<ele>581.253601</ele>
<time>2017-07-08T10:22:17.000Z</time>
</trkpt>
<trkpt lat="39.1939590" lon="-6.1352210">
<ele>581.741272</ele>
<time>2017-07-08T10:22:19.008Z</time>
</trkpt>
<trkpt lat="39.1939180" lon="-6.1353000">
<ele>582.686157</ele>
<time>2017-07-08T10:22:26.003Z</time>
</trkpt>
<trkpt lat="39.1938850" lon="-6.1353750">
<ele>583.661499</ele>
<time>2017-07-08T10:22:31.009Z</time>
</trkpt>
<trkpt lat="39.1938620" lon="-6.1354070">
<ele>584.149170</ele>
<time>2017-07-08T10:22:34.007Z</time>
</trkpt>
<trkpt lat="39.1938100" lon="-6.1354710">
<ele>586.069458</ele>
<time>2017-07-08T10:22:48.000Z</time>
</trkpt>
<trkpt lat="39.1937720" lon="-6.1355100">
<ele>587.502014</ele>
<time>2017-07-08T10:22:58.009Z</time>
</trkpt>
<trkpt lat="39.1937690" lon="-6.1355080">
<ele>587.502014</ele>
<time>2017-07-08T10:23:20.003Z</time>
</trkpt>
<trkpt lat="39.1937690" lon="-6.1355080">
<ele>587.502014</ele>
<time>2017-07-08T10:23:20.006Z</time>
</trkpt>
<trkpt lat="39.1937000" lon="-6.1356740">
<ele>588.446899</ele>
<time>2017-07-08T10:23:36.004Z</time>
</trkpt>
<trkpt lat="39.1936440" lon="-6.1358480">
<ele>589.909912</ele>
<time>2017-07-08T10:23:50.001Z</time>
</trkpt>
<trkpt lat="39.1936080" lon="-6.1359830">
<ele>591.342468</ele>
<time>2017-07-08T10:24:03.004Z</time>
</trkpt>
<trkpt lat="39.1935960" lon="-6.1360260">
<ele>591.830139</ele>
<time>2017-07-08T10:24:06.002Z</time>
</trkpt>
<trkpt lat="39.1935560" lon="-6.1360940">
<ele>592.317871</ele>
<time>2017-07-08T10:24:18.003Z</time>
</trkpt>
<trkpt lat="39.1935410" lon="-6.1361430">
<ele>592.775024</ele>
<time>2017-07-08T10:24:30.004Z</time>
</trkpt>
<trkpt lat="39.1935390" lon="-6.1361520">
<ele>593.262756</ele>
<time>2017-07-08T10:24:32.000Z</time>
</trkpt>
<trkpt lat="39.1935250" lon="-6.1363850">
<ele>594.238098</ele>
<time>2017-07-08T10:24:49.003Z</time>
</trkpt>
<trkpt lat="39.1935400" lon="-6.1364720">
<ele>594.238098</ele>
<time>2017-07-08T10:25:01.008Z</time>
</trkpt>
<trkpt lat="39.1935860" lon="-6.1366700">
<ele>595.670654</ele>
<time>2017-07-08T10:25:16.007Z</time>
</trkpt>
<trkpt lat="39.1936190" lon="-6.1367890">
<ele>598.078552</ele>
<time>2017-07-08T10:25:27.002Z</time>
</trkpt>
<trkpt lat="39.1936020" lon="-6.1368630">
<ele>597.590881</ele>
<time>2017-07-08T10:25:31.006Z</time>
</trkpt>
<trkpt lat="39.1935900" lon="-6.1369160">
<ele>597.133667</ele>
<time>2017-07-08T10:25:35.006Z</time>
</trkpt>
<trkpt lat="39.1936290" lon="-6.1370060">
<ele>596.645996</ele>
<time>2017-07-08T10:25:43.003Z</time>
</trkpt>
<trkpt lat="39.1936740" lon="-6.1372010">
<ele>594.695251</ele>
<time>2017-07-08T10:25:58.006Z</time>
</trkpt>
<trkpt lat="39.1936660" lon="-6.1373160">
<ele>594.238098</ele>
<time>2017-07-08T10:26:10.007Z</time>
</trkpt>
<trkpt lat="39.1936640" lon="-6.1373470">
<ele>592.775024</ele>
<time>2017-07-08T10:26:14.007Z</time>
</trkpt>
<trkpt lat="39.1936640" lon="-6.1374660">
<ele>592.317871</ele>
<time>2017-07-08T10:26:24.000Z</time>
</trkpt>
<trkpt lat="39.1936800" lon="-6.1376150">
<ele>591.830139</ele>
<time>2017-07-08T10:26:33.003Z</time>
</trkpt>
<trkpt lat="39.1936590" lon="-6.1377490">
<ele>590.854797</ele>
<time>2017-07-08T10:26:41.007Z</time>
</trkpt>
<trkpt lat="39.1936450" lon="-6.1377940">
<ele>590.854797</ele>
<time>2017-07-08T10:26:45.004Z</time>
</trkpt>
<trkpt lat="39.1936350" lon="-6.1379390">
<ele>590.397583</ele>
<time>2017-07-08T10:26:57.008Z</time>
</trkpt>
<trkpt lat="39.1936550" lon="-6.1380630">
<ele>589.909912</ele>
<time>2017-07-08T10:27:05.009Z</time>
</trkpt>
<trkpt lat="39.1937230" lon="-6.1381390">
<ele>589.909912</ele>
<time>2017-07-08T10:27:19.002Z</time>
</trkpt>
<trkpt lat="39.1937290" lon="-6.1382130">
<ele>589.909912</ele>
<time>2017-07-08T10:27:24.008Z</time>
</trkpt>
<trkpt lat="39.1937360" lon="-6.1382750">
<ele>589.909912</ele>
<time>2017-07-08T10:27:28.009Z</time>
</trkpt>
<trkpt lat="39.1937630" lon="-6.1383760">
<ele>590.397583</ele>
<time>2017-07-08T10:27:43.004Z</time>
</trkpt>
<trkpt lat="39.1937690" lon="-6.1384000">
<ele>590.397583</ele>
<time>2017-07-08T10:28:02.004Z</time>
</trkpt>
<trkpt lat="39.1937730" lon="-6.1384050">
<ele>590.854797</ele>
<time>2017-07-08T10:28:21.006Z</time>
</trkpt>
<trkpt lat="39.1937720" lon="-6.1384090">
<ele>591.830139</ele>
<time>2017-07-08T10:28:40.006Z</time>
</trkpt>
<trkpt lat="39.1937730" lon="-6.1384110">
<ele>591.342468</ele>
<time>2017-07-08T10:28:59.002Z</time>
</trkpt>
<trkpt lat="39.1937680" lon="-6.1384130">
<ele>591.342468</ele>
<time>2017-07-08T10:29:34.006Z</time>
</trkpt>
<trkpt lat="39.1937610" lon="-6.1384860">
<ele>590.397583</ele>
<time>2017-07-08T10:29:46.007Z</time>
</trkpt>
<trkpt lat="39.1937190" lon="-6.1385470">
<ele>589.909912</ele>
<time>2017-07-08T10:29:54.007Z</time>
</trkpt>
<trkpt lat="39.1937110" lon="-6.1385680">
<ele>589.422241</ele>
<time>2017-07-08T10:29:57.002Z</time>
</trkpt>
<trkpt lat="39.1936400" lon="-6.1386860">
<ele>588.965027</ele>
<time>2017-07-08T10:30:13.007Z</time>
</trkpt>
<trkpt lat="39.1936380" lon="-6.1386900">
<ele>588.965027</ele>
<time>2017-07-08T10:30:23.000Z</time>
</trkpt>
<trkpt lat="39.1936110" lon="-6.1388870">
<ele>588.446899</ele>
<time>2017-07-08T10:30:40.003Z</time>
</trkpt>
<trkpt lat="39.1936030" lon="-6.1390150">
<ele>587.502014</ele>
<time>2017-07-08T10:30:55.002Z</time>
</trkpt>
<trkpt lat="39.1936050" lon="-6.1390810">
<ele>587.014343</ele>
<time>2017-07-08T10:31:08.009Z</time>
</trkpt>
<trkpt lat="39.1935960" lon="-6.1392130">
<ele>586.526672</ele>
<time>2017-07-08T10:31:19.008Z</time>
</trkpt>
<trkpt lat="39.1936020" lon="-6.1393420">
<ele>585.581726</ele>
<time>2017-07-08T10:31:33.001Z</time>
</trkpt>
<trkpt lat="39.1936530" lon="-6.1393980">
<ele>584.606384</ele>
<time>2017-07-08T10:31:46.004Z</time>
</trkpt>
<trkpt lat="39.1937380" lon="-6.1395450">
<ele>583.661499</ele>
<time>2017-07-08T10:32:01.007Z</time>
</trkpt>
<trkpt lat="39.1937460" lon="-6.1395440">
<ele>583.173828</ele>
<time>2017-07-08T10:32:28.007Z</time>
</trkpt>
<trkpt lat="39.1937430" lon="-6.1395380">
<ele>583.173828</ele>
<time>2017-07-08T10:32:48.008Z</time>
</trkpt>
<trkpt lat="39.1937460" lon="-6.1395360">
<ele>583.173828</ele>
<time>2017-07-08T10:33:14.006Z</time>
</trkpt>
<trkpt lat="39.1937780" lon="-6.1396050">
<ele>583.661499</ele>
<time>2017-07-08T10:33:42.008Z</time>
</trkpt>
<trkpt lat="39.1938390" lon="-6.1397080">
<ele>583.173828</ele>
<time>2017-07-08T10:33:57.004Z</time>
</trkpt>
<trkpt lat="39.1938500" lon="-6.1397240">
<ele>583.661499</ele>
<time>2017-07-08T10:34:15.001Z</time>
</trkpt>
<trkpt lat="39.1938470" lon="-6.1397150">
<ele>583.661499</ele>
<time>2017-07-08T10:34:36.008Z</time>
</trkpt>
<trkpt lat="39.1938510" lon="-6.1397220">
<ele>583.173828</ele>
<time>2017-07-08T10:34:43.003Z</time>
</trkpt>
<trkpt lat="39.1938810" lon="-6.1397790">
<ele>583.173828</ele>
<time>2017-07-08T10:34:47.007Z</time>
</trkpt>
<trkpt lat="39.1939000" lon="-6.1400300">
<ele>582.228943</ele>
<time>2017-07-08T10:35:03.008Z</time>
</trkpt>
<trkpt lat="39.1938980" lon="-6.1400390">
<ele>582.228943</ele>
<time>2017-07-08T10:35:05.001Z</time>
</trkpt>
<trkpt lat="39.1939090" lon="-6.1401070">
<ele>580.765930</ele>
<time>2017-07-08T10:35:17.002Z</time>
</trkpt>
<trkpt lat="39.1939120" lon="-6.1401240">
<ele>580.765930</ele>
<time>2017-07-08T10:35:18.007Z</time>
</trkpt>
<trkpt lat="39.1938130" lon="-6.1402520">
<ele>577.900818</ele>
<time>2017-07-08T10:35:33.006Z</time>
</trkpt>
<trkpt lat="39.1937950" lon="-6.1403560">
<ele>575.492859</ele>
<time>2017-07-08T10:35:47.000Z</time>
</trkpt>
<trkpt lat="39.1937750" lon="-6.1403760">
<ele>575.005188</ele>
<time>2017-07-08T10:35:51.000Z</time>
</trkpt>
<trkpt lat="39.1937620" lon="-6.1404450">
<ele>573.572632</ele>
<time>2017-07-08T10:35:56.006Z</time>
</trkpt>
<trkpt lat="39.1937360" lon="-6.1405130">
<ele>571.164734</ele>
<time>2017-07-08T10:36:09.009Z</time>
</trkpt>
<trkpt lat="39.1937300" lon="-6.1405160">
<ele>570.677063</ele>
<time>2017-07-08T10:36:16.004Z</time>
</trkpt>
<trkpt lat="39.1937330" lon="-6.1406140">
<ele>569.732117</ele>
<time>2017-07-08T10:36:22.000Z</time>
</trkpt>
<trkpt lat="39.1937750" lon="-6.1406780">
<ele>570.189331</ele>
<time>2017-07-08T10:36:31.007Z</time>
</trkpt>
<trkpt lat="39.1938040" lon="-6.1407820">
<ele>569.732117</ele>
<time>2017-07-08T10:36:51.008Z</time>
</trkpt>
<trkpt lat="39.1938060" lon="-6.1407820">
<ele>570.189331</ele>
<time>2017-07-08T10:36:55.009Z</time>
</trkpt>
<trkpt lat="39.1938470" lon="-6.1408800">
<ele>570.677063</ele>
<time>2017-07-08T10:37:02.007Z</time>
</trkpt>
<trkpt lat="39.1939170" lon="-6.1409840">
<ele>572.109619</ele>
<time>2017-07-08T10:37:17.003Z</time>
</trkpt>
<trkpt lat="39.1939320" lon="-6.1411490">
<ele>573.572632</ele>
<time>2017-07-08T10:37:32.002Z</time>
</trkpt>
<trkpt lat="39.1939450" lon="-6.1412300">
<ele>574.517517</ele>
<time>2017-07-08T10:37:45.008Z</time>
</trkpt>
<trkpt lat="39.1939480" lon="-6.1412820">
<ele>574.517517</ele>
<time>2017-07-08T10:37:51.001Z</time>
</trkpt>
<trkpt lat="39.1939390" lon="-6.1414180">
<ele>572.597290</ele>
<time>2017-07-08T10:38:06.000Z</time>
</trkpt>
<trkpt lat="39.1939420" lon="-6.1414300">
<ele>572.109619</ele>
<time>2017-07-08T10:38:07.002Z</time>
</trkpt>
<trkpt lat="39.1939240" lon="-6.1416420">
<ele>571.652405</ele>
<time>2017-07-08T10:38:23.004Z</time>
</trkpt>
<trkpt lat="39.1939110" lon="-6.1417420">
<ele>571.164734</ele>
<time>2017-07-08T10:38:38.003Z</time>
</trkpt>
<trkpt lat="39.1938580" lon="-6.1419640">
<ele>570.677063</ele>
<time>2017-07-08T10:38:53.002Z</time>
</trkpt>
<trkpt lat="39.1938180" lon="-6.1420120">
<ele>570.189331</ele>
<time>2017-07-08T10:38:58.004Z</time>
</trkpt>
<trkpt lat="39.1937860" lon="-6.1420750">
<ele>570.189331</ele>
<time>2017-07-08T10:39:10.009Z</time>
</trkpt>
<trkpt lat="39.1937720" lon="-6.1421040">
<ele>569.732117</ele>
<time>2017-07-08T10:39:13.007Z</time>
</trkpt>
<trkpt lat="39.1937570" lon="-6.1421590">
<ele>569.244446</ele>
<time>2017-07-08T10:39:17.007Z</time>
</trkpt>
<trkpt lat="39.1937330" lon="-6.1422190">
<ele>568.756775</ele>
<time>2017-07-08T10:39:21.007Z</time>
</trkpt>
<trkpt lat="39.1936890" lon="-6.1424870">
<ele>568.269104</ele>
<time>2017-07-08T10:39:40.007Z</time>
</trkpt>
<trkpt lat="39.1936870" lon="-6.1426090">
<ele>567.811951</ele>
<time>2017-07-08T10:39:52.004Z</time>
</trkpt>
<trkpt lat="39.1936850" lon="-6.1426300">
<ele>567.324280</ele>
<time>2017-07-08T10:39:54.000Z</time>
</trkpt>
<trkpt lat="39.1936740" lon="-6.1427040">
<ele>565.861206</ele>
<time>2017-07-08T10:39:59.003Z</time>
</trkpt>
<trkpt lat="39.1936170" lon="-6.1428310">
<ele>562.508423</ele>
<time>2017-07-08T10:40:12.009Z</time>
</trkpt>
<trkpt lat="39.1935880" lon="-6.1428810">
<ele>560.588135</ele>
<time>2017-07-08T10:40:22.002Z</time>
</trkpt>
<trkpt lat="39.1935740" lon="-6.1429660">
<ele>560.100464</ele>
<time>2017-07-08T10:40:26.006Z</time>
</trkpt>
<trkpt lat="39.1935700" lon="-6.1430690">
<ele>558.667908</ele>
<time>2017-07-08T10:40:35.009Z</time>
</trkpt>
<trkpt lat="39.1935270" lon="-6.1431190">
<ele>557.204895</ele>
<time>2017-07-08T10:40:48.000Z</time>
</trkpt>
<trkpt lat="39.1934710" lon="-6.1432500">
<ele>555.315125</ele>
<time>2017-07-08T10:41:02.009Z</time>
</trkpt>
<trkpt lat="39.1934150" lon="-6.1433560">
<ele>552.907227</ele>
<time>2017-07-08T10:41:16.002Z</time>
</trkpt>
<trkpt lat="39.1934100" lon="-6.1433650">
<ele>552.419556</ele>
<time>2017-07-08T10:41:32.007Z</time>
</trkpt>
<trkpt lat="39.1934090" lon="-6.1433640">
<ele>551.931885</ele>
<time>2017-07-08T10:41:59.007Z</time>
</trkpt>
<trkpt lat="39.1934150" lon="-6.1433560">
<ele>552.419556</ele>
<time>2017-07-08T10:42:34.004Z</time>
</trkpt>
<trkpt lat="39.1934110" lon="-6.1433680">
<ele>552.907227</ele>
<time>2017-07-08T10:43:03.000Z</time>
</trkpt>
<trkpt lat="39.1934070" lon="-6.1433750">
<ele>552.419556</ele>
<time>2017-07-08T10:43:32.008Z</time>
</trkpt>
<trkpt lat="39.1934030" lon="-6.1433830">
<ele>552.907227</ele>
<time>2017-07-08T10:43:58.006Z</time>
</trkpt>
<trkpt lat="39.1934010" lon="-6.1433900">
<ele>552.419556</ele>
<time>2017-07-08T10:43:59.008Z</time>
</trkpt>
<trkpt lat="39.1933900" lon="-6.1433960">
<ele>551.931885</ele>
<time>2017-07-08T10:44:02.003Z</time>
</trkpt>
<trkpt lat="39.1933550" lon="-6.1434980">
<ele>550.499268</ele>
<time>2017-07-08T10:44:14.007Z</time>
</trkpt>
<trkpt lat="39.1933470" lon="-6.1435120">
<ele>550.499268</ele>
<time>2017-07-08T10:44:17.002Z</time>
</trkpt>
<trkpt lat="39.1932880" lon="-6.1436550">
<ele>548.579041</ele>
<time>2017-07-08T10:44:32.001Z</time>
</trkpt>
<trkpt lat="39.1932690" lon="-6.1436990">
<ele>548.579041</ele>
<time>2017-07-08T10:44:36.001Z</time>
</trkpt>
<trkpt lat="39.1932760" lon="-6.1437770">
<ele>548.579041</ele>
<time>2017-07-08T10:44:41.004Z</time>
</trkpt>
<trkpt lat="39.1932460" lon="-6.1439520">
<ele>547.603699</ele>
<time>2017-07-08T10:44:53.008Z</time>
</trkpt>
<trkpt lat="39.1932200" lon="-6.1441290">
<ele>547.603699</ele>
<time>2017-07-08T10:45:07.001Z</time>
</trkpt>
<trkpt lat="39.1932140" lon="-6.1442410">
<ele>548.091370</ele>
<time>2017-07-08T10:45:15.002Z</time>
</trkpt>
<trkpt lat="39.1932130" lon="-6.1442970">
<ele>548.091370</ele>
<time>2017-07-08T10:45:19.002Z</time>
</trkpt>
<trkpt lat="39.1931990" lon="-6.1443500">
<ele>548.579041</ele>
<time>2017-07-08T10:45:23.003Z</time>
</trkpt>
<trkpt lat="39.1931540" lon="-6.1445210">
<ele>549.523926</ele>
<time>2017-07-08T10:45:35.004Z</time>
</trkpt>
<trkpt lat="39.1931260" lon="-6.1447170">
<ele>551.444153</ele>
<time>2017-07-08T10:45:50.003Z</time>
</trkpt>
<trkpt lat="39.1931120" lon="-6.1448120">
<ele>552.419556</ele>
<time>2017-07-08T10:45:58.003Z</time>
</trkpt>
<trkpt lat="39.1930780" lon="-6.1449600">
<ele>554.339722</ele>
<time>2017-07-08T10:46:13.006Z</time>
</trkpt>
<trkpt lat="39.1930810" lon="-6.1450710">
<ele>555.772339</ele>
<time>2017-07-08T10:46:22.009Z</time>
</trkpt>
<trkpt lat="39.1931170" lon="-6.1452200">
<ele>558.180237</ele>
<time>2017-07-08T10:46:36.002Z</time>
</trkpt>
<trkpt lat="39.1931160" lon="-6.1453640">
<ele>561.075867</ele>
<time>2017-07-08T10:46:49.009Z</time>
</trkpt>
<trkpt lat="39.1931150" lon="-6.1453770">
<ele>561.075867</ele>
<time>2017-07-08T10:46:51.001Z</time>
</trkpt>
<trkpt lat="39.1931280" lon="-6.1455340">
<ele>562.996094</ele>
<time>2017-07-08T10:47:04.008Z</time>
</trkpt>
<trkpt lat="39.1931110" lon="-6.1455540">
<ele>563.483765</ele>
<time>2017-07-08T10:47:07.006Z</time>
</trkpt>
<trkpt lat="39.1930890" lon="-6.1456070">
<ele>563.940918</ele>
<time>2017-07-08T10:47:11.006Z</time>
</trkpt>
<trkpt lat="39.1930810" lon="-6.1456410">
<ele>563.483765</ele>
<time>2017-07-08T10:47:14.001Z</time>
</trkpt>
<trkpt lat="39.1930800" lon="-6.1457530">
<ele>564.428650</ele>
<time>2017-07-08T10:47:23.004Z</time>
</trkpt>
<trkpt lat="39.1930480" lon="-6.1458260">
<ele>564.428650</ele>
<time>2017-07-08T10:47:29.000Z</time>
</trkpt>
<trkpt lat="39.1930210" lon="-6.1458780">
<ele>564.428650</ele>
<time>2017-07-08T10:47:33.000Z</time>
</trkpt>
<trkpt lat="39.1930190" lon="-6.1459770">
<ele>564.428650</ele>
<time>2017-07-08T10:47:38.006Z</time>
</trkpt>
<trkpt lat="39.1929680" lon="-6.1461670">
<ele>564.428650</ele>
<time>2017-07-08T10:47:51.009Z</time>
</trkpt>
<trkpt lat="39.1929230" lon="-6.1463400">
<ele>563.940918</ele>
<time>2017-07-08T10:48:01.006Z</time>
</trkpt>
<trkpt lat="39.1928930" lon="-6.1463550">
<ele>564.428650</ele>
<time>2017-07-08T10:48:06.008Z</time>
</trkpt>
<trkpt lat="39.1928530" lon="-6.1464690">
<ele>562.508423</ele>
<time>2017-07-08T10:48:20.002Z</time>
</trkpt>
<trkpt lat="39.1928150" lon="-6.1465440">
<ele>562.020752</ele>
<time>2017-07-08T10:48:25.004Z</time>
</trkpt>
<trkpt lat="39.1927380" lon="-6.1467380">
<ele>562.996094</ele>
<time>2017-07-08T10:48:40.007Z</time>
</trkpt>
<trkpt lat="39.1927270" lon="-6.1469110">
<ele>564.428650</ele>
<time>2017-07-08T10:48:52.008Z</time>
</trkpt>
<trkpt lat="39.1927360" lon="-6.1470210">
<ele>564.428650</ele>
<time>2017-07-08T10:49:00.008Z</time>
</trkpt>
<trkpt lat="39.1926320" lon="-6.1472010">
<ele>565.403992</ele>
<time>2017-07-08T10:49:17.000Z</time>
</trkpt>
<trkpt lat="39.1925880" lon="-6.1472870">
<ele>565.403992</ele>
<time>2017-07-08T10:49:23.008Z</time>
</trkpt>
<trkpt lat="39.1925400" lon="-6.1474910">
<ele>565.403992</ele>
<time>2017-07-08T10:49:42.004Z</time>
</trkpt>
<trkpt lat="39.1925360" lon="-6.1475060">
<ele>564.916321</ele>
<time>2017-07-08T10:49:42.007Z</time>
</trkpt>
<trkpt lat="39.1925220" lon="-6.1477170">
<ele>563.483765</ele>
<time>2017-07-08T10:50:01.003Z</time>
</trkpt>
<trkpt lat="39.1925290" lon="-6.1479960">
<ele>563.483765</ele>
<time>2017-07-08T10:50:20.006Z</time>
</trkpt>
<trkpt lat="39.1926090" lon="-6.1481300">
<ele>562.020752</ele>
<time>2017-07-08T10:50:36.004Z</time>
</trkpt>
<trkpt lat="39.1926330" lon="-6.1482940">
<ele>559.125122</ele>
<time>2017-07-08T10:50:51.003Z</time>
</trkpt>
<trkpt lat="39.1927150" lon="-6.1483740">
<ele>557.692566</ele>
<time>2017-07-08T10:51:07.004Z</time>
</trkpt>
<trkpt lat="39.1927890" lon="-6.1485270">
<ele>554.339722</ele>
<time>2017-07-08T10:51:19.009Z</time>
</trkpt>
<trkpt lat="39.1928010" lon="-6.1485460">
<ele>553.852051</ele>
<time>2017-07-08T10:51:22.003Z</time>
</trkpt>
<trkpt lat="39.1927500" lon="-6.1486720">
<ele>550.499268</ele>
<time>2017-07-08T10:51:37.002Z</time>
</trkpt>
<trkpt lat="39.1926740" lon="-6.1487110">
<ele>549.036255</ele>
<time>2017-07-08T10:51:45.003Z</time>
</trkpt>
<trkpt lat="39.1926600" lon="-6.1487340">
<ele>548.579041</ele>
<time>2017-07-08T10:51:46.009Z</time>
</trkpt>
<trkpt lat="39.1926360" lon="-6.1487730">
<ele>547.116028</ele>
<time>2017-07-08T10:51:50.009Z</time>
</trkpt>
<trkpt lat="39.1925620" lon="-6.1488670">
<ele>545.683472</ele>
<time>2017-07-08T10:52:00.002Z</time>
</trkpt>
<trkpt lat="39.1924140" lon="-6.1489900">
<ele>544.250854</ele>
<time>2017-07-08T10:52:12.006Z</time>
</trkpt>
<trkpt lat="39.1923490" lon="-6.1491870">
<ele>541.842957</ele>
<time>2017-07-08T10:52:28.004Z</time>
</trkpt>
<trkpt lat="39.1923000" lon="-6.1494150">
<ele>539.435059</ele>
<time>2017-07-08T10:52:44.009Z</time>
</trkpt>
<trkpt lat="39.1923090" lon="-6.1495930">
<ele>537.027100</ele>
<time>2017-07-08T10:52:59.008Z</time>
</trkpt>
<trkpt lat="39.1923280" lon="-6.1497060">
<ele>536.082275</ele>
<time>2017-07-08T10:53:09.001Z</time>
</trkpt>
<trkpt lat="39.1923250" lon="-6.1498420">
<ele>535.106873</ele>
<time>2017-07-08T10:53:18.004Z</time>
</trkpt>
<trkpt lat="39.1922130" lon="-6.1499450">
<ele>534.619202</ele>
<time>2017-07-08T10:53:30.008Z</time>
</trkpt>
<trkpt lat="39.1920590" lon="-6.1499720">
<ele>531.754089</ele>
<time>2017-07-08T10:53:47.000Z</time>
</trkpt>
<trkpt lat="39.1919890" lon="-6.1500560">
<ele>530.291077</ele>
<time>2017-07-08T10:53:57.008Z</time>
</trkpt>
<trkpt lat="39.1919740" lon="-6.1501320">
<ele>528.858459</ele>
<time>2017-07-08T10:54:04.003Z</time>
</trkpt>
<trkpt lat="39.1919940" lon="-6.1503000">
<ele>525.993347</ele>
<time>2017-07-08T10:54:20.008Z</time>
</trkpt>
<trkpt lat="39.1920330" lon="-6.1504230">
<ele>523.585449</ele>
<time>2017-07-08T10:54:35.004Z</time>
</trkpt>
<trkpt lat="39.1920900" lon="-6.1504810">
<ele>520.689880</ele>
<time>2017-07-08T10:54:49.000Z</time>
</trkpt>
<trkpt lat="39.1921040" lon="-6.1504760">
<ele>520.689880</ele>
<time>2017-07-08T10:54:50.006Z</time>
</trkpt>
<trkpt lat="39.1922620" lon="-6.1504540">
<ele>518.769592</ele>
<time>2017-07-08T10:55:06.007Z</time>
</trkpt>
<trkpt lat="39.1923580" lon="-6.1504680">
<ele>516.849365</ele>
<time>2017-07-08T10:55:20.001Z</time>
</trkpt>
<trkpt lat="39.1924980" lon="-6.1504700">
<ele>513.953735</ele>
<time>2017-07-08T10:55:36.002Z</time>
</trkpt>
<trkpt lat="39.1925070" lon="-6.1505730">
<ele>511.545868</ele>
<time>2017-07-08T10:55:51.001Z</time>
</trkpt>
<trkpt lat="39.1924350" lon="-6.1506640">
<ele>509.168396</ele>
<time>2017-07-08T10:56:04.008Z</time>
</trkpt>
<trkpt lat="39.1923490" lon="-6.1507490">
<ele>504.840240</ele>
<time>2017-07-08T10:56:19.007Z</time>
</trkpt>
<trkpt lat="39.1923480" lon="-6.1507480">
<ele>509.625610</ele>
<time>2017-07-08T10:56:20.009Z</time>
</trkpt>
<trkpt lat="39.1923530" lon="-6.1507470">
<ele>507.217682</ele>
<time>2017-07-08T10:56:27.004Z</time>
</trkpt>
<trkpt lat="39.1923430" lon="-6.1507660">
<ele>507.217682</ele>
<time>2017-07-08T10:56:29.000Z</time>
</trkpt>
<trkpt lat="39.1923090" lon="-6.1508570">
<ele>505.785126</ele>
<time>2017-07-08T10:56:37.000Z</time>
</trkpt>
<trkpt lat="39.1923410" lon="-6.1508860">
<ele>504.840240</ele>
<time>2017-07-08T10:56:42.003Z</time>
</trkpt>
<trkpt lat="39.1924450" lon="-6.1508900">
<ele>502.432343</ele>
<time>2017-07-08T10:56:57.002Z</time>
</trkpt>
<trkpt lat="39.1924120" lon="-6.1510380">
<ele>500.024414</ele>
<time>2017-07-08T10:57:12.001Z</time>
</trkpt>
<trkpt lat="39.1924830" lon="-6.1510680">
<ele>498.591858</ele>
<time>2017-07-08T10:57:20.002Z</time>
</trkpt>
<trkpt lat="39.1926440" lon="-6.1509830">
<ele>496.671600</ele>
<time>2017-07-08T10:57:36.003Z</time>
</trkpt>
<trkpt lat="39.1927410" lon="-6.1509850">
<ele>494.751343</ele>
<time>2017-07-08T10:57:47.002Z</time>
</trkpt>
<trkpt lat="39.1928290" lon="-6.1509110">
<ele>493.288330</ele>
<time>2017-07-08T10:58:03.003Z</time>
</trkpt>
<trkpt lat="39.1928880" lon="-6.1509120">
<ele>491.855743</ele>
<time>2017-07-08T10:58:18.002Z</time>
</trkpt>
<trkpt lat="39.1929250" lon="-6.1509360">
<ele>491.368073</ele>
<time>2017-07-08T10:58:22.006Z</time>
</trkpt>
<trkpt lat="39.1930800" lon="-6.1509380">
<ele>488.502960</ele>
<time>2017-07-08T10:58:38.007Z</time>
</trkpt>
<trkpt lat="39.1930870" lon="-6.1510150">
<ele>486.552246</ele>
<time>2017-07-08T10:58:53.006Z</time>
</trkpt>
<trkpt lat="39.1930420" lon="-6.1510440">
<ele>486.095062</ele>
<time>2017-07-08T10:59:01.003Z</time>
</trkpt>
<trkpt lat="39.1929890" lon="-6.1511480">
<ele>484.631989</ele>
<time>2017-07-08T10:59:20.003Z</time>
</trkpt>
<trkpt lat="39.1930140" lon="-6.1510680">
<ele>485.607330</ele>
<time>2017-07-08T11:00:33.002Z</time>
</trkpt>
<trkpt lat="39.1929810" lon="-6.1511420">
<ele>484.174805</ele>
<time>2017-07-08T11:00:40.000Z</time>
</trkpt>
<trkpt lat="39.1929610" lon="-6.1512320">
<ele>483.199463</ele>
<time>2017-07-08T11:00:48.001Z</time>
</trkpt>
<trkpt lat="39.1929660" lon="-6.1513120">
<ele>482.254547</ele>
<time>2017-07-08T11:00:53.007Z</time>
</trkpt>
<trkpt lat="39.1929680" lon="-6.1514100">
<ele>481.279205</ele>
<time>2017-07-08T11:01:01.004Z</time>
</trkpt>
<trkpt lat="39.1929440" lon="-6.1515890">
<ele>479.358948</ele>
<time>2017-07-08T11:01:15.001Z</time>
</trkpt>
<trkpt lat="39.1929150" lon="-6.1516560">
<ele>477.895935</ele>
<time>2017-07-08T11:01:21.009Z</time>
</trkpt>
<trkpt lat="39.1928850" lon="-6.1517440">
<ele>477.438721</ele>
<time>2017-07-08T11:01:35.006Z</time>
</trkpt>
<trkpt lat="39.1928630" lon="-6.1518220">
<ele>475.030792</ele>
<time>2017-07-08T11:02:02.006Z</time>
</trkpt>
<trkpt lat="39.1928670" lon="-6.1518300">
<ele>475.030792</ele>
<time>2017-07-08T11:02:18.007Z</time>
</trkpt>
<trkpt lat="39.1928600" lon="-6.1518420">
<ele>475.030792</ele>
<time>2017-07-08T11:02:33.003Z</time>
</trkpt>
<trkpt lat="39.1928810" lon="-6.1519080">
<ele>474.543121</ele>
<time>2017-07-08T11:02:45.004Z</time>
</trkpt>
<trkpt lat="39.1928140" lon="-6.1519810">
<ele>473.598267</ele>
<time>2017-07-08T11:04:02.007Z</time>
</trkpt>
<trkpt lat="39.1928190" lon="-6.1519850">
<ele>473.598267</ele>
<time>2017-07-08T11:04:21.006Z</time>
</trkpt>
<trkpt lat="39.1927750" lon="-6.1520030">
<ele>473.598267</ele>
<time>2017-07-08T11:04:35.000Z</time>
</trkpt>
<trkpt lat="39.1926320" lon="-6.1519880">
<ele>472.622864</ele>
<time>2017-07-08T11:04:45.008Z</time>
</trkpt>
<trkpt lat="39.1925900" lon="-6.1520000">
<ele>472.622864</ele>
<time>2017-07-08T11:04:48.006Z</time>
</trkpt>
<trkpt lat="39.1925120" lon="-6.1520300">
<ele>472.622864</ele>
<time>2017-07-08T11:04:55.001Z</time>
</trkpt>
<trkpt lat="39.1923740" lon="-6.1521180">
<ele>471.647522</ele>
<time>2017-07-08T11:05:11.003Z</time>
</trkpt>
<trkpt lat="39.1923260" lon="-6.1521490">
<ele>471.190338</ele>
<time>2017-07-08T11:05:29.000Z</time>
</trkpt>
<trkpt lat="39.1923200" lon="-6.1521410">
<ele>471.190338</ele>
<time>2017-07-08T11:05:51.009Z</time>
</trkpt>
<trkpt lat="39.1923190" lon="-6.1521410">
<ele>471.190338</ele>
<time>2017-07-08T11:06:21.007Z</time>
</trkpt>
<trkpt lat="39.1923210" lon="-6.1521430">
<ele>470.702667</ele>
<time>2017-07-08T11:06:55.006Z</time>
</trkpt>
<trkpt lat="39.1923230" lon="-6.1521470">
<ele>470.702667</ele>
<time>2017-07-08T11:07:26.006Z</time>
</trkpt>
<trkpt lat="39.1923260" lon="-6.1521490">
<ele>470.702667</ele>
<time>2017-07-08T11:07:58.009Z</time>
</trkpt>
<trkpt lat="39.1923240" lon="-6.1521520">
<ele>470.702667</ele>
<time>2017-07-08T11:08:32.007Z</time>
</trkpt>
<trkpt lat="39.1923240" lon="-6.1521550">
<ele>470.702667</ele>
<time>2017-07-08T11:09:00.009Z</time>
</trkpt>
<trkpt lat="39.1923230" lon="-6.1521570">
<ele>471.190338</ele>
<time>2017-07-08T11:09:30.007Z</time>
</trkpt>
<trkpt lat="39.1923240" lon="-6.1521590">
<ele>471.190338</ele>
<time>2017-07-08T11:10:01.004Z</time>
</trkpt>
<trkpt lat="39.1923230" lon="-6.1521590">
<ele>471.190338</ele>
<time>2017-07-08T11:10:31.002Z</time>
</trkpt>
<trkpt lat="39.1923240" lon="-6.1521600">
<ele>471.190338</ele>
<time>2017-07-08T11:10:58.006Z</time>
</trkpt>
<trkpt lat="39.1923220" lon="-6.1521600">
<ele>471.190338</ele>
<time>2017-07-08T11:11:28.000Z</time>
</trkpt>
<trkpt lat="39.1923210" lon="-6.1521600">
<ele>470.702667</ele>
<time>2017-07-08T11:11:56.003Z</time>
</trkpt>
<trkpt lat="39.1923210" lon="-6.1521630">
<ele>471.190338</ele>
<time>2017-07-08T11:12:27.006Z</time>
</trkpt>
<trkpt lat="39.1923180" lon="-6.1521640">
<ele>471.647522</ele>
<time>2017-07-08T11:12:57.001Z</time>
</trkpt>
<trkpt lat="39.1923090" lon="-6.1521710">
<ele>472.135193</ele>
<time>2017-07-08T11:12:58.003Z</time>
</trkpt>
<trkpt lat="39.1922290" lon="-6.1521990">
<ele>471.190338</ele>
<time>2017-07-08T11:13:09.002Z</time>
</trkpt>
<trkpt lat="39.1922220" lon="-6.1522130">
<ele>471.190338</ele>
<time>2017-07-08T11:13:10.008Z</time>
</trkpt>
<trkpt lat="39.1921330" lon="-6.1523330">
<ele>469.727264</ele>
<time>2017-07-08T11:13:25.007Z</time>
</trkpt>
<trkpt lat="39.1920280" lon="-6.1523930">
<ele>468.782410</ele>
<time>2017-07-08T11:13:39.000Z</time>
</trkpt>
<trkpt lat="39.1920070" lon="-6.1524370">
<ele>468.294739</ele>
<time>2017-07-08T11:13:43.000Z</time>
</trkpt>
<trkpt lat="39.1919630" lon="-6.1524570">
<ele>467.349854</ele>
<time>2017-07-08T11:13:47.001Z</time>
</trkpt>
<trkpt lat="39.1918280" lon="-6.1524850">
<ele>466.374481</ele>
<time>2017-07-08T11:14:00.004Z</time>
</trkpt>
<trkpt lat="39.1916910" lon="-6.1525820">
<ele>464.941925</ele>
<time>2017-07-08T11:14:14.001Z</time>
</trkpt>
<trkpt lat="39.1915430" lon="-6.1527130">
<ele>464.454254</ele>
<time>2017-07-08T11:14:30.002Z</time>
</trkpt>
<trkpt lat="39.1914560" lon="-6.1527980">
<ele>464.454254</ele>
<time>2017-07-08T11:14:39.008Z</time>
</trkpt>
<trkpt lat="39.1913020" lon="-6.1529740">
<ele>463.966553</ele>
<time>2017-07-08T11:14:58.004Z</time>
</trkpt>
<trkpt lat="39.1912710" lon="-6.1530520">
<ele>463.966553</ele>
<time>2017-07-08T11:15:04.000Z</time>
</trkpt>
<trkpt lat="39.1911870" lon="-6.1532950">
<ele>463.478882</ele>
<time>2017-07-08T11:15:21.004Z</time>
</trkpt>
<trkpt lat="39.1910300" lon="-6.1535300">
<ele>463.021667</ele>
<time>2017-07-08T11:15:40.007Z</time>
</trkpt>
<trkpt lat="39.1909840" lon="-6.1535960">
<ele>462.046326</ele>
<time>2017-07-08T11:15:48.007Z</time>
</trkpt>
<trkpt lat="39.1909580" lon="-6.1536160">
<ele>461.558655</ele>
<time>2017-07-08T11:15:52.004Z</time>
</trkpt>
<trkpt lat="39.1908060" lon="-6.1537990">
<ele>461.101440</ele>
<time>2017-07-08T11:16:10.001Z</time>
</trkpt>
<trkpt lat="39.1906600" lon="-6.1539640">
<ele>460.613739</ele>
<time>2017-07-08T11:16:29.001Z</time>
</trkpt>
<trkpt lat="39.1906510" lon="-6.1539730">
<ele>459.638397</ele>
<time>2017-07-08T11:16:30.003Z</time>
</trkpt>
<trkpt lat="39.1905620" lon="-6.1540590">
<ele>459.638397</ele>
<time>2017-07-08T11:16:41.002Z</time>
</trkpt>
<trkpt lat="39.1904780" lon="-6.1541140">
<ele>458.693542</ele>
<time>2017-07-08T11:16:49.002Z</time>
</trkpt>
<trkpt lat="39.1903650" lon="-6.1542730">
<ele>456.773285</ele>
<time>2017-07-08T11:17:04.001Z</time>
</trkpt>
<trkpt lat="39.1903390" lon="-6.1543200">
<ele>455.310242</ele>
<time>2017-07-08T11:17:09.007Z</time>
</trkpt>
<trkpt lat="39.1903270" lon="-6.1543410">
<ele>455.310242</ele>
<time>2017-07-08T11:17:12.002Z</time>
</trkpt>
<trkpt lat="39.1902120" lon="-6.1544410">
<ele>453.390015</ele>
<time>2017-07-08T11:17:28.003Z</time>
</trkpt>
<trkpt lat="39.1901330" lon="-6.1544880">
<ele>452.932800</ele>
<time>2017-07-08T11:17:36.004Z</time>
</trkpt>
<trkpt lat="39.1900470" lon="-6.1545800">
<ele>452.445129</ele>
<time>2017-07-08T11:17:47.003Z</time>
</trkpt>
<trkpt lat="39.1899700" lon="-6.1546990">
<ele>451.957458</ele>
<time>2017-07-08T11:18:03.007Z</time>
</trkpt>
<trkpt lat="39.1898820" lon="-6.1548210">
<ele>450.524872</ele>
<time>2017-07-08T11:18:18.003Z</time>
</trkpt>
<trkpt lat="39.1897440" lon="-6.1549910">
<ele>450.037201</ele>
<time>2017-07-08T11:18:34.008Z</time>
</trkpt>
<trkpt lat="39.1896610" lon="-6.1551800">
<ele>449.061859</ele>
<time>2017-07-08T11:18:50.009Z</time>
</trkpt>
<trkpt lat="39.1896390" lon="-6.1552120">
<ele>448.604645</ele>
<time>2017-07-08T11:18:54.009Z</time>
</trkpt>
<trkpt lat="39.1894980" lon="-6.1553770">
<ele>447.629272</ele>
<time>2017-07-08T11:19:12.003Z</time>
</trkpt>
<trkpt lat="39.1893360" lon="-6.1555220">
<ele>448.116943</ele>
<time>2017-07-08T11:19:28.008Z</time>
</trkpt>
<trkpt lat="39.1893290" lon="-6.1555370">
<ele>447.141602</ele>
<time>2017-07-08T11:19:30.000Z</time>
</trkpt>
<trkpt lat="39.1892750" lon="-6.1556020">
<ele>446.684387</ele>
<time>2017-07-08T11:19:36.008Z</time>
</trkpt>
<trkpt lat="39.1892030" lon="-6.1556830">
<ele>445.221344</ele>
<time>2017-07-08T11:19:54.002Z</time>
</trkpt>
<trkpt lat="39.1891470" lon="-6.1556800">
<ele>446.196716</ele>
<time>2017-07-08T11:20:01.000Z</time>
</trkpt>
<trkpt lat="39.1890290" lon="-6.1557150">
<ele>444.764160</ele>
<time>2017-07-08T11:20:14.007Z</time>
</trkpt>
<trkpt lat="39.1889140" lon="-6.1557180">
<ele>444.276459</ele>
<time>2017-07-08T11:20:25.006Z</time>
</trkpt>
<trkpt lat="39.1887660" lon="-6.1557350">
<ele>443.301117</ele>
<time>2017-07-08T11:20:41.007Z</time>
</trkpt>
<trkpt lat="39.1887530" lon="-6.1557370">
<ele>443.301117</ele>
<time>2017-07-08T11:20:44.002Z</time>
</trkpt>
<trkpt lat="39.1886330" lon="-6.1557990">
<ele>442.325745</ele>
<time>2017-07-08T11:20:57.008Z</time>
</trkpt>
<trkpt lat="39.1885900" lon="-6.1558260">
<ele>442.325745</ele>
<time>2017-07-08T11:21:03.001Z</time>
</trkpt>
<trkpt lat="39.1885380" lon="-6.1558310">
<ele>442.325745</ele>
<time>2017-07-08T11:21:07.001Z</time>
</trkpt>
<trkpt lat="39.1883320" lon="-6.1559750">
<ele>441.380859</ele>
<time>2017-07-08T11:21:26.001Z</time>
</trkpt>
<trkpt lat="39.1881500" lon="-6.1560490">
<ele>439.460663</ele>
<time>2017-07-08T11:21:45.000Z</time>
</trkpt>
<trkpt lat="39.1879800" lon="-6.1561130">
<ele>438.028076</ele>
<time>2017-07-08T11:22:02.004Z</time>
</trkpt>
<trkpt lat="39.1878430" lon="-6.1561740">
<ele>436.565063</ele>
<time>2017-07-08T11:22:17.006Z</time>
</trkpt>
<trkpt lat="39.1877520" lon="-6.1562110">
<ele>436.565063</ele>
<time>2017-07-08T11:22:33.004Z</time>
</trkpt>
<trkpt lat="39.1876220" lon="-6.1563090">
<ele>434.644806</ele>
<time>2017-07-08T11:22:48.006Z</time>
</trkpt>
<trkpt lat="39.1875520" lon="-6.1564330">
<ele>433.699921</ele>
<time>2017-07-08T11:23:04.004Z</time>
</trkpt>
<trkpt lat="39.1875380" lon="-6.1564500">
<ele>434.157135</ele>
<time>2017-07-08T11:23:07.002Z</time>
</trkpt>
<trkpt lat="39.1874850" lon="-6.1564700">
<ele>432.724548</ele>
<time>2017-07-08T11:23:12.008Z</time>
</trkpt>
<trkpt lat="39.1873550" lon="-6.1566450">
<ele>430.804321</ele>
<time>2017-07-08T11:23:30.002Z</time>
</trkpt>
<trkpt lat="39.1873050" lon="-6.1567700">
<ele>428.884064</ele>
<time>2017-07-08T11:23:41.001Z</time>
</trkpt>
<trkpt lat="39.1872620" lon="-6.1569190">
<ele>426.476135</ele>
<time>2017-07-08T11:23:54.007Z</time>
</trkpt>
<trkpt lat="39.1872510" lon="-6.1569270">
<ele>426.476135</ele>
<time>2017-07-08T11:24:12.001Z</time>
</trkpt>
<trkpt lat="39.1872510" lon="-6.1569280">
<ele>426.476135</ele>
<time>2017-07-08T11:24:29.008Z</time>
</trkpt>
<trkpt lat="39.1872520" lon="-6.1569280">
<ele>425.988464</ele>
<time>2017-07-08T11:24:32.003Z</time>
</trkpt>
<trkpt lat="39.1873640" lon="-6.1569600">
<ele>425.043610</ele>
<time>2017-07-08T11:24:43.001Z</time>
</trkpt>
<trkpt lat="39.1873870" lon="-6.1569630">
<ele>424.555939</ele>
<time>2017-07-08T11:24:44.007Z</time>
</trkpt>
<trkpt lat="39.1874470" lon="-6.1569400">
<ele>424.068268</ele>
<time>2017-07-08T11:24:50.000Z</time>
</trkpt>
<trkpt lat="39.1876360" lon="-6.1570490">
<ele>424.068268</ele>
<time>2017-07-08T11:25:06.001Z</time>
</trkpt>
<trkpt lat="39.1877990" lon="-6.1572460">
<ele>424.555939</ele>
<time>2017-07-08T11:25:23.008Z</time>
</trkpt>
<trkpt lat="39.1880830" lon="-6.1572670">
<ele>426.963867</ele>
<time>2017-07-08T11:25:46.008Z</time>
</trkpt>
<trkpt lat="39.1882520" lon="-6.1573260">
<ele>428.884064</ele>
<time>2017-07-08T11:26:02.009Z</time>
</trkpt>
<trkpt lat="39.1884330" lon="-6.1575120">
<ele>429.371735</ele>
<time>2017-07-08T11:26:21.008Z</time>
</trkpt>
<trkpt lat="39.1886220" lon="-6.1577730">
<ele>428.396393</ele>
<time>2017-07-08T11:26:42.000Z</time>
</trkpt>
<trkpt lat="39.1888160" lon="-6.1579720">
<ele>429.371735</ele>
<time>2017-07-08T11:27:02.002Z</time>
</trkpt>
<trkpt lat="39.1890180" lon="-6.1581440">
<ele>430.316650</ele>
<time>2017-07-08T11:27:21.001Z</time>
</trkpt>
<trkpt lat="39.1892100" lon="-6.1583710">
<ele>431.779663</ele>
<time>2017-07-08T11:27:41.003Z</time>
</trkpt>
<trkpt lat="39.1893560" lon="-6.1585950">
<ele>433.212250</ele>
<time>2017-07-08T11:27:57.007Z</time>
</trkpt>
<trkpt lat="39.1894480" lon="-6.1587490">
<ele>432.236877</ele>
<time>2017-07-08T11:28:09.008Z</time>
</trkpt>
<trkpt lat="39.1893190" lon="-6.1589840">
<ele>431.291992</ele>
<time>2017-07-08T11:28:27.002Z</time>
</trkpt>
<trkpt lat="39.1891900" lon="-6.1592250">
<ele>430.804321</ele>
<time>2017-07-08T11:28:44.009Z</time>
</trkpt>
<trkpt lat="39.1890690" lon="-6.1594300">
<ele>429.859467</ele>
<time>2017-07-08T11:28:59.008Z</time>
</trkpt>
<trkpt lat="39.1888650" lon="-6.1596570">
<ele>429.859467</ele>
<time>2017-07-08T11:29:21.002Z</time>
</trkpt>
<trkpt lat="39.1887960" lon="-6.1597120">
<ele>430.804321</ele>
<time>2017-07-08T11:29:34.009Z</time>
</trkpt>
<trkpt lat="39.1888060" lon="-6.1597320">
<ele>429.859467</ele>
<time>2017-07-08T11:31:08.000Z</time>
</trkpt>
<trkpt lat="39.1888080" lon="-6.1600180">
<ele>428.396393</ele>
<time>2017-07-08T11:31:25.007Z</time>
</trkpt>
<trkpt lat="39.1888200" lon="-6.1603190">
<ele>425.988464</ele>
<time>2017-07-08T11:31:44.003Z</time>
</trkpt>
<trkpt lat="39.1887700" lon="-6.1605480">
<ele>424.555939</ele>
<time>2017-07-08T11:32:00.004Z</time>
</trkpt>
<trkpt lat="39.1887240" lon="-6.1607000">
<ele>424.068268</ele>
<time>2017-07-08T11:32:11.003Z</time>
</trkpt>
</trkseg>
</trk>
</gpx>
